Observation data for Palo Duro Canyon State Park Floor on 01/17/2021      Previous  Date  Next       Current Mesonet Observations  Soil Data  Daily Summary Page  Observations in Plain Language
KPD2 170600Z 34002KT 00/M05 A3012 RMK A01 T00021045  RH  071%=      5-min Rain = 0
KPD2 170601Z 33002KT 00/M05 A3012 RMK A01 T00021045  RH  071%=      5-min Rain = 0
KPD2 170602Z 33003KT 00/M05 A3012 RMK A01 T00021046  RH  070%=      5-min Rain = 0
KPD2 170603Z 32003KT 00/M05 A3012 RMK A01 T00011046  RH  070%=      5-min Rain = 0
KPD2 170604Z 33004KT 00/M05 A3013 RMK A01 T00011046  RH  071%=      5-min Rain = 0
KPD2 170605Z 32003KT 00/05 A3013 RMK A01 T00000-46  RH  071%=      5-min Rain = 0
KPD2 170606Z 31003KT 00/05 A3013 RMK A01 T00000-46  RH  071%=      5-min Rain = 0
KPD2 170607Z 31004KT 00/05 A3013 RMK A01 T00000-45  RH  071%=      5-min Rain = 0
KPD2 170608Z 33003KT 00/05 A3013 RMK A01 T00000-46  RH  071%=      5-min Rain = 0
KPD2 170609Z 31003KT 00/05 A3013 RMK A01 T00000-46  RH  071%=      5-min Rain = 0
KPD2 170610Z 32003KT 00/05 A3013 RMK A01 T00000-46  RH  071%=      5-min Rain = 0
KPD2 170611Z 30003KT 00/05 A3013 RMK A01 T00000-45  RH  071%=      5-min Rain = 0
KPD2 170612Z 31006KT 00/M05 A3013 RMK A01 T00011045  RH  071%=      5-min Rain = 0
KPD2 170613Z 30007KT 00/M05 A3013 RMK A01 T00011045  RH  071%=      5-min Rain = 0
KPD2 170614Z 31005KT 00/M05 A3013 RMK A01 T00021045  RH  071%=      5-min Rain = 0
KPD2 170615Z 31005KT 00/M05 A3013 RMK A01 T00021045  RH  071%=      5-min Rain = 0
KPD2 170616Z 31004KT 00/M05 A3013 RMK A01 T00021045  RH  071%=      5-min Rain = 0
KPD2 170617Z 31005KT 00/M05 A3013 RMK A01 T00021045  RH  071%=      5-min Rain = 0
KPD2 170618Z 31004KT 00/M05 A3013 RMK A01 T00021045  RH  071%=      5-min Rain = 0
KPD2 170619Z 31003KT 00/M05 A3013 RMK A01 T00011046  RH  071%=      5-min Rain = 0
KPD2 170620Z 33003KT 00/05 A3013 RMK A01 T00000-47  RH  071%=      5-min Rain = 0
KPD2 170621Z 33003KT M00/M05 A3013 RMK A01 T10011047  RH  071%=      5-min Rain = 0
KPD2 170622Z 31003KT M00/M05 A3013 RMK A01 T10011046  RH  071%=      5-min Rain = 0
KPD2 170623Z 31003KT M00/M05 A3013 RMK A01 T10011046  RH  072%=      5-min Rain = 0
KPD2 170624Z 32003KT M00/M05 A3013 RMK A01 T10021047  RH  071%=      5-min Rain = 0
KPD2 170625Z 32002KT M00/M05 A3013 RMK A01 T10021047  RH  072%=      5-min Rain = 0
KPD2 170626Z 32003KT M00/M05 A3013 RMK A01 T10041048  RH  072%=      5-min Rain = 0
KPD2 170627Z 32003KT M00/M05 A3013 RMK A01 T10041049  RH  072%=      5-min Rain = 0
KPD2 170628Z 31003KT M01/M05 A3013 RMK A01 T10051049  RH  072%=      5-min Rain = 0
KPD2 170629Z 31003KT M01/M05 A3013 RMK A01 T10061049  RH  073%=      5-min Rain = 0
KPD2 170630Z 31003KT M01/M05 A3013 RMK A01 T10061049  RH  073%=      5-min Rain = 0
KPD2 170631Z 31003KT M01/M05 A3013 RMK A01 T10071049  RH  073%=      5-min Rain = 0
KPD2 170632Z 31004KT M01/M05 A3013 RMK A01 T10071049  RH  073%=      5-min Rain = 0
KPD2 170633Z 31003KT M01/M05 A3013 RMK A01 T10081049  RH  073%=      5-min Rain = 0
KPD2 170634Z 32003KT M01/M05 A3013 RMK A01 T10091050  RH  073%=      5-min Rain = 0
KPD2 170635Z 33003KT M01/M05 A3013 RMK A01 T10091050  RH  074%=      5-min Rain = 0
KPD2 170636Z 33003KT M01/M05 A3013 RMK A01 T10091049  RH  074%=      5-min Rain = 0
KPD2 170637Z 34003KT M01/M05 A3013 RMK A01 T10091049  RH  074%=      5-min Rain = 0
KPD2 170638Z 32004KT M01/M05 A3013 RMK A01 T10091049  RH  074%=      5-min Rain = 0
KPD2 170639Z 31005KT M01/M05 A3013 RMK A01 T10081048  RH  074%=      5-min Rain = 0
KPD2 170640Z 31004KT M01/M05 A3013 RMK A01 T10081047  RH  074%=      5-min Rain = 0
KPD2 170641Z 31004KT M01/M05 A3013 RMK A01 T10071047  RH  074%=      5-min Rain = 0
KPD2 170642Z 33004KT M01/M05 A3013 RMK A01 T10071048  RH  074%=      5-min Rain = 0
KPD2 170643Z 32004KT M01/M05 A3013 RMK A01 T10071048  RH  074%=      5-min Rain = 0
KPD2 170644Z 32004KT M01/M05 A3013 RMK A01 T10071047  RH  074%=      5-min Rain = 0
KPD2 170645Z 33004KT M01/M05 A3013 RMK A01 T10061047  RH  074%=      5-min Rain = 0
KPD2 170646Z 32003KT M01/M05 A3013 RMK A01 T10061047  RH  074%=      5-min Rain = 0
KPD2 170647Z 32004KT M01/M05 A3013 RMK A01 T10071048  RH  074%=      5-min Rain = 0
KPD2 170648Z 30004KT M01/M05 A3013 RMK A01 T10061047  RH  074%=      5-min Rain = 0
KPD2 170649Z 31003KT M01/M05 A3013 RMK A01 T10061047  RH  074%=      5-min Rain = 0
KPD2 170650Z 31003KT M01/M05 A3013 RMK A01 T10071048  RH  074%=      5-min Rain = 0
KPD2 170651Z 31003KT M01/M05 A3013 RMK A01 T10071048  RH  074%=      5-min Rain = 0
KPD2 170652Z 31004KT M01/M05 A3013 RMK A01 T10071048  RH  074%=      5-min Rain = 0
KPD2 170653Z 31005KT M01/M05 A3013 RMK A01 T10081047  RH  074%=      5-min Rain = 0
KPD2 170654Z 31005KT M01/M05 A3013 RMK A01 T10071047  RH  075%=      5-min Rain = 0
KPD2 170655Z 31005KT M01/M05 A3013 RMK A01 T10061046  RH  075%=      5-min Rain = 0
KPD2 170656Z 31004KT M01/M05 A3013 RMK A01 T10061046  RH  074%=      5-min Rain = 0
KPD2 170657Z 31005KT M01/M05 A3013 RMK A01 T10061046  RH  074%=      5-min Rain = 0
KPD2 170658Z 32005KT M01/M05 A3013 RMK A01 T10061047  RH  074%=      5-min Rain = 0
KPD2 170659Z 32004KT M01/M05 A3013 RMK A01 T10061047  RH  074%=      5-min Rain = 0
KPD2 170700Z 32005KT M01/M05 A3013 RMK A01 T10061046  RH  074%=      5-min Rain = 0
KPD2 170701Z 32004KT M01/M05 A3013 RMK A01 T10061046  RH  074%=      5-min Rain = 0
KPD2 170702Z 34004KT M01/M05 A3013 RMK A01 T10061046  RH  074%=      5-min Rain = 0
KPD2 170703Z 34004KT M01/M05 A3013 RMK A01 T10061046  RH  074%=      5-min Rain = 0
KPD2 170704Z 35004KT M01/M05 A3013 RMK A01 T10061046  RH  074%=      5-min Rain = 0
KPD2 170705Z 35004KT M01/M05 A3013 RMK A01 T10071047  RH  074%=      5-min Rain = 0
KPD2 170706Z 34004KT M01/M05 A3013 RMK A01 T10071047  RH  074%=      5-min Rain = 0
KPD2 170707Z 35004KT M01/M05 A3013 RMK A01 T10071047  RH  075%=      5-min Rain = 0
KPD2 170708Z 36005KT M01/M05 A3013 RMK A01 T10071047  RH  075%=      5-min Rain = 0
KPD2 170709Z 34005KT M01/M05 A3013 RMK A01 T10081047  RH  075%=      5-min Rain = 0
KPD2 170710Z 35005KT M01/M05 A3013 RMK A01 T10071045  RH  075%=      5-min Rain = 0
KPD2 170711Z 35005KT M01/M05 A3013 RMK A01 T10061045  RH  075%=      5-min Rain = 0
KPD2 170712Z 35005KT M01/M05 A3013 RMK A01 T10061046  RH  074%=      5-min Rain = 0
KPD2 170713Z 35006KT M01/M05 A3013 RMK A01 T10061046  RH  074%=      5-min Rain = 0
KPD2 170714Z 35005KT M01/M05 A3013 RMK A01 T10061046  RH  074%=      5-min Rain = 0
KPD2 170715Z 35005KT M01/M05 A3013 RMK A01 T10051045  RH  074%=      5-min Rain = 0
KPD2 170716Z 35005KT M01/M05 A3013 RMK A01 T10051046  RH  074%=      5-min Rain = 0
KPD2 170717Z 35006KT M01/M05 A3013 RMK A01 T10051045  RH  074%=      5-min Rain = 0
KPD2 170718Z 34006KT M00/M05 A3013 RMK A01 T10041045  RH  074%=      5-min Rain = 0
KPD2 170719Z 35005KT M00/M05 A3013 RMK A01 T10041045  RH  074%=      5-min Rain = 0
KPD2 170720Z 35005KT M00/M05 A3013 RMK A01 T10031045  RH  074%=      5-min Rain = 0
KPD2 170721Z 34005KT M00/M05 A3013 RMK A01 T10031045  RH  073%=      5-min Rain = 0
KPD2 170722Z 34006KT M00/M05 A3013 RMK A01 T10041046  RH  073%=      5-min Rain = 0
KPD2 170723Z 34006KT M01/M05 A3013 RMK A01 T10051047  RH  073%=      5-min Rain = 0
KPD2 170724Z 35005KT M01/M05 A3013 RMK A01 T10051047  RH  074%=      5-min Rain = 0
KPD2 170725Z 35006KT M01/M05 A3013 RMK A01 T10051046  RH  074%=      5-min Rain = 0
KPD2 170726Z 34007KT M00/M05 A3013 RMK A01 T10041045  RH  074%=      5-min Rain = 0
KPD2 170727Z 34006KT M00/M05 A3013 RMK A01 T10041045  RH  074%=      5-min Rain = 0
KPD2 170728Z 34005KT M00/M05 A3013 RMK A01 T10041045  RH  073%=      5-min Rain = 0
KPD2 170729Z 34005KT M00/M05 A3013 RMK A01 T10041046  RH  073%=      5-min Rain = 0
KPD2 170730Z 35004KT M00/M05 A3013 RMK A01 T10041046  RH  073%=      5-min Rain = 0
KPD2 170731Z 35005KT M00/M05 A3013 RMK A01 T10041045  RH  074%=      5-min Rain = 0
KPD2 170732Z 35005KT M00/M05 A3013 RMK A01 T10031045  RH  074%=      5-min Rain = 0
KPD2 170733Z 33006KT M00/M05 A3013 RMK A01 T10041045  RH  074%=      5-min Rain = 0
KPD2 170734Z 34005KT M00/M04 A3013 RMK A01 T10031044  RH  074%=      5-min Rain = 0
KPD2 170735Z 35005KT M00/M04 A3013 RMK A01 T10021044  RH  074%=      5-min Rain = 0
KPD2 170736Z 34005KT M00/M04 A3013 RMK A01 T10021044  RH  073%=      5-min Rain = 0
KPD2 170737Z 35004KT M00/M04 A3013 RMK A01 T10011043  RH  073%=      5-min Rain = 0
KPD2 170738Z 35005KT M00/M04 A3013 RMK A01 T10011044  RH  073%=      5-min Rain = 0
KPD2 170739Z 34004KT M00/M05 A3013 RMK A01 T10021045  RH  072%=      5-min Rain = 0
KPD2 170740Z 34004KT M00/M05 A3013 RMK A01 T10021045  RH  073%=      5-min Rain = 0
KPD2 170741Z 33005KT M00/M04 A3013 RMK A01 T10011044  RH  073%=      5-min Rain = 0
KPD2 170742Z 34005KT M00/M04 A3014 RMK A01 T10011044  RH  073%=      5-min Rain = 0
KPD2 170743Z 34005KT M00/M05 A3014 RMK A01 T10021045  RH  073%=      5-min Rain = 0
KPD2 170744Z 32005KT M00/M05 A3014 RMK A01 T10021045  RH  073%=      5-min Rain = 0
KPD2 170745Z 31004KT M00/M04 A3014 RMK A01 T10011044  RH  073%=      5-min Rain = 0
KPD2 170746Z 31005KT M00/M05 A3014 RMK A01 T10021045  RH  073%=      5-min Rain = 0
KPD2 170747Z 31005KT M00/M05 A3014 RMK A01 T10021045  RH  072%=      5-min Rain = 0
KPD2 170748Z 31005KT M00/M05 A3014 RMK A01 T10011045  RH  072%=      5-min Rain = 0
KPD2 170749Z 32005KT M00/M05 A3014 RMK A01 T10021046  RH  072%=      5-min Rain = 0
KPD2 170750Z 32004KT M00/M05 A3014 RMK A01 T10021046  RH  072%=      5-min Rain = 0
KPD2 170751Z 33003KT M00/M05 A3014 RMK A01 T10031047  RH  072%=      5-min Rain = 0
KPD2 170752Z 34004KT M00/M05 A3014 RMK A01 T10031047  RH  072%=      5-min Rain = 0
KPD2 170753Z 33005KT M00/M05 A3014 RMK A01 T10041047  RH  073%=      5-min Rain = 0
KPD2 170754Z 33006KT M01/M05 A3014 RMK A01 T10051048  RH  073%=      5-min Rain = 0
KPD2 170755Z 33006KT M01/M05 A3014 RMK A01 T10051047  RH  073%=      5-min Rain = 0
KPD2 170756Z 33006KT M01/M05 A3014 RMK A01 T10061047  RH  073%=      5-min Rain = 0
KPD2 170757Z 32006KT M01/M05 A3014 RMK A01 T10061047  RH  074%=      5-min Rain = 0
KPD2 170758Z 32006KT M01/M05 A3014 RMK A01 T10061047  RH  074%=      5-min Rain = 0
KPD2 170759Z 32005KT M01/M05 A3014 RMK A01 T10061047  RH  074%=      5-min Rain = 0
KPD2 170800Z 32005KT M01/M05 A3014 RMK A01 T10061047  RH  074%=      5-min Rain = 0
KPD2 170801Z 32005KT M01/M05 A3014 RMK A01 T10061047  RH  074%=      5-min Rain = 0
KPD2 170802Z 32005KT M01/M05 A3015 RMK A01 T10061048  RH  074%=      5-min Rain = 0
KPD2 170803Z 32005KT M01/M05 A3015 RMK A01 T10071048  RH  074%=      5-min Rain = 0
KPD2 170804Z 33005KT M01/M05 A3015 RMK A01 T10081049  RH  074%=      5-min Rain = 0
KPD2 170805Z 31005KT M01/M05 A3015 RMK A01 T10091049  RH  074%=      5-min Rain = 0
KPD2 170806Z 32004KT M01/M05 A3015 RMK A01 T10091049  RH  074%=      5-min Rain = 0
KPD2 170807Z 31006KT M01/M05 A3015 RMK A01 T10101049  RH  075%=      5-min Rain = 0
KPD2 170808Z 32006KT M01/M05 A3015 RMK A01 T10101049  RH  075%=      5-min Rain = 0
KPD2 170809Z 32005KT M01/M05 A3015 RMK A01 T10101049  RH  075%=      5-min Rain = 0
KPD2 170810Z 32005KT M01/M05 A3015 RMK A01 T10111049  RH  075%=      5-min Rain = 0
KPD2 170811Z 33004KT M01/M05 A3015 RMK A01 T10101048  RH  075%=      5-min Rain = 0
KPD2 170812Z 33004KT M01/M05 A3015 RMK A01 T10111049  RH  075%=      5-min Rain = 0
KPD2 170813Z 33004KT M01/M05 A3015 RMK A01 T10111050  RH  075%=      5-min Rain = 0
KPD2 170814Z 34004KT M01/M05 A3015 RMK A01 T10121050  RH  075%=      5-min Rain = 0
KPD2 170815Z 34004KT M01/M05 A3015 RMK A01 T10131050  RH  076%=      5-min Rain = 0
KPD2 170816Z 34004KT M01/M05 A3015 RMK A01 T10131050  RH  076%=      5-min Rain = 0
KPD2 170817Z 34004KT M01/M05 A3015 RMK A01 T10131050  RH  076%=      5-min Rain = 0
KPD2 170818Z 33004KT M01/M05 A3015 RMK A01 T10131049  RH  077%=      5-min Rain = 0
KPD2 170819Z 33004KT M01/M05 A3015 RMK A01 T10131049  RH  077%=      5-min Rain = 0
KPD2 170820Z 33003KT M01/M05 A3015 RMK A01 T10121048  RH  077%=      5-min Rain = 0
KPD2 170821Z 32003KT M01/M05 A3015 RMK A01 T10121048  RH  077%=      5-min Rain = 0
KPD2 170822Z 33003KT M01/M05 A3015 RMK A01 T10111047  RH  077%=      5-min Rain = 0
KPD2 170823Z 32003KT M01/M05 A3015 RMK A01 T10111047  RH  076%=      5-min Rain = 0
KPD2 170824Z 31004KT M01/M05 A3015 RMK A01 T10111047  RH  076%=      5-min Rain = 0
KPD2 170825Z 31004KT M01/M05 A3015 RMK A01 T10101047  RH  076%=      5-min Rain = 0
KPD2 170826Z 31003KT M01/M05 A3015 RMK A01 T10111048  RH  076%=      5-min Rain = 0
KPD2 170827Z 31003KT M01/M05 A3015 RMK A01 T10121049  RH  075%=      5-min Rain = 0
KPD2 170828Z 31003KT M01/M05 A3015 RMK A01 T10131051  RH  075%=      5-min Rain = 0
KPD2 170829Z 30003KT M01/M05 A3015 RMK A01 T10141052  RH  076%=      5-min Rain = 0
KPD2 170830Z 30003KT M02/M05 A3015 RMK A01 T10151052  RH  076%=      5-min Rain = 0
KPD2 170831Z 30003KT M02/M05 A3014 RMK A01 T10171053  RH  076%=      5-min Rain = 0
KPD2 170832Z 31003KT M02/M05 A3014 RMK A01 T10181053  RH  077%=      5-min Rain = 0
KPD2 170833Z 31003KT M02/M05 A3014 RMK A01 T10191053  RH  077%=      5-min Rain = 0
KPD2 170834Z 31003KT M02/M05 A3014 RMK A01 T10191053  RH  078%=      5-min Rain = 0
KPD2 170835Z 31003KT M02/M05 A3014 RMK A01 T10201053  RH  078%=      5-min Rain = 0
KPD2 170836Z 31003KT M02/M05 A3014 RMK A01 T10201053  RH  078%=      5-min Rain = 0
KPD2 170837Z 31003KT M02/M05 A3014 RMK A01 T10201052  RH  079%=      5-min Rain = 0
KPD2 170838Z 31003KT M02/M05 A3014 RMK A01 T10211052  RH  079%=      5-min Rain = 0
KPD2 170839Z 32004KT M02/M05 A3014 RMK A01 T10211052  RH  079%=      5-min Rain = 0
KPD2 170840Z 33004KT M02/M05 A3014 RMK A01 T10211052  RH  079%=      5-min Rain = 0
KPD2 170841Z 33004KT M02/M05 A3014 RMK A01 T10211052  RH  079%=      5-min Rain = 0
KPD2 170842Z 31004KT M02/M05 A3014 RMK A01 T10221053  RH  079%=      5-min Rain = 0
KPD2 170843Z 31004KT M02/M05 A3014 RMK A01 T10221053  RH  079%=      5-min Rain = 0
KPD2 170844Z 31004KT M02/M05 A3014 RMK A01 T10231053  RH  080%=      5-min Rain = 0
KPD2 170845Z 32004KT M02/M05 A3014 RMK A01 T10231053  RH  080%=      5-min Rain = 0
KPD2 170846Z 32004KT M02/M05 A3014 RMK A01 T10231053  RH  080%=      5-min Rain = 0
KPD2 170847Z 30004KT M02/M05 A3014 RMK A01 T10231053  RH  080%=      5-min Rain = 0
KPD2 170848Z 31004KT M02/M05 A3014 RMK A01 T10231053  RH  080%=      5-min Rain = 0
KPD2 170849Z 30004KT M02/M05 A3014 RMK A01 T10241053  RH  080%=      5-min Rain = 0
KPD2 170850Z 31004KT M02/M05 A3014 RMK A01 T10241054  RH  080%=      5-min Rain = 0
KPD2 170851Z 30004KT M03/M06 A3014 RMK A01 T10251055  RH  080%=      5-min Rain = 0
KPD2 170852Z 30004KT M03/M06 A3014 RMK A01 T10261055  RH  080%=      5-min Rain = 0
KPD2 170853Z 31004KT M03/M06 A3014 RMK A01 T10261056  RH  080%=      5-min Rain = 0
KPD2 170854Z 30004KT M03/M06 A3014 RMK A01 T10271056  RH  081%=      5-min Rain = 0
KPD2 170855Z 30003KT M03/M06 A3014 RMK A01 T10271055  RH  081%=      5-min Rain = 0
KPD2 170856Z 30004KT M03/M06 A3014 RMK A01 T10271055  RH  081%=      5-min Rain = 0
KPD2 170857Z 30003KT M03/M06 A3014 RMK A01 T10271055  RH  081%=      5-min Rain = 0
KPD2 170858Z 30003KT M03/M06 A3014 RMK A01 T10281056  RH  081%=      5-min Rain = 0
KPD2 170859Z 30003KT M03/M06 A3014 RMK A01 T10281056  RH  081%=      5-min Rain = 0
KPD2 170900Z 30003KT M03/M06 A3014 RMK A01 T10291057  RH  081%=      5-min Rain = 0
KPD2 170901Z 31003KT M03/M06 A3014 RMK A01 T10291057  RH  081%=      5-min Rain = 0
KPD2 170902Z 30003KT M03/M06 A3014 RMK A01 T10291056  RH  082%=      5-min Rain = 0
KPD2 170903Z 31003KT M03/M06 A3014 RMK A01 T10291056  RH  082%=      5-min Rain = 0
KPD2 170904Z 30003KT M03/M06 A3014 RMK A01 T10301057  RH  082%=      5-min Rain = 0
KPD2 170905Z 29003KT M03/M06 A3014 RMK A01 T10301057  RH  082%=      5-min Rain = 0
KPD2 170906Z 29003KT M03/M06 A3014 RMK A01 T10301057  RH  082%=      5-min Rain = 0
KPD2 170907Z 29002KT M03/M06 A3014 RMK A01 T10301057  RH  082%=      5-min Rain = 0
KPD2 170908Z 29002KT M03/M06 A3014 RMK A01 T10311058  RH  082%=      5-min Rain = 0
KPD2 170909Z 29002KT M03/M06 A3014 RMK A01 T10311058  RH  082%=      5-min Rain = 0
KPD2 170910Z 29002KT M03/M06 A3014 RMK A01 T10321058  RH  082%=      5-min Rain = 0
KPD2 170911Z 30002KT M03/M06 A3014 RMK A01 T10321057  RH  082%=      5-min Rain = 0
KPD2 170912Z 30002KT M03/M06 A3014 RMK A01 T10321057  RH  083%=      5-min Rain = 0
KPD2 170913Z 29002KT M03/M06 A3014 RMK A01 T10321057  RH  083%=      5-min Rain = 0
KPD2 170914Z 29001KT M03/M06 A3014 RMK A01 T10321057  RH  083%=      5-min Rain = 0
KPD2 170915Z 30002KT M03/M06 A3014 RMK A01 T10321057  RH  083%=      5-min Rain = 0
KPD2 170916Z 30002KT M03/M06 A3014 RMK A01 T10311056  RH  083%=      5-min Rain = 0
KPD2 170917Z 30002KT M03/M06 A3014 RMK A01 T10321056  RH  083%=      5-min Rain = 0
KPD2 170918Z 30002KT M03/M06 A3014 RMK A01 T10321056  RH  083%=      5-min Rain = 0
KPD2 170919Z 31002KT M03/M06 A3014 RMK A01 T10321056  RH  083%=      5-min Rain = 0
KPD2 170920Z 32002KT M03/M06 A3014 RMK A01 T10321057  RH  083%=      5-min Rain = 0
KPD2 170921Z 32002KT M03/M06 A3014 RMK A01 T10321057  RH  083%=      5-min Rain = 0
KPD2 170922Z 32002KT M03/M06 A3014 RMK A01 T10321057  RH  083%=      5-min Rain = 0
KPD2 170923Z 32002KT M03/M06 A3014 RMK A01 T10331057  RH  083%=      5-min Rain = 0
KPD2 170924Z 32003KT M03/M06 A3015 RMK A01 T10331057  RH  083%=      5-min Rain = 0
KPD2 170925Z 31003KT M03/M06 A3015 RMK A01 T10321057  RH  083%=      5-min Rain = 0
KPD2 170926Z 31003KT M03/M06 A3015 RMK A01 T10321057  RH  083%=      5-min Rain = 0
KPD2 170927Z 30004KT M03/M06 A3015 RMK A01 T10321056  RH  083%=      5-min Rain = 0
KPD2 170928Z 30004KT M03/M06 A3015 RMK A01 T10321056  RH  083%=      5-min Rain = 0
KPD2 170929Z 30004KT M03/M06 A3015 RMK A01 T10321056  RH  083%=      5-min Rain = 0
KPD2 170930Z 30004KT M03/M06 A3015 RMK A01 T10321057  RH  083%=      5-min Rain = 0
KPD2 170931Z 30004KT M03/M06 A3015 RMK A01 T10321058  RH  083%=      5-min Rain = 0
KPD2 170932Z 30003KT M03/M06 A3015 RMK A01 T10331058  RH  083%=      5-min Rain = 0
KPD2 170933Z 30003KT M03/M06 A3015 RMK A01 T10331058  RH  083%=      5-min Rain = 0
KPD2 170934Z 30003KT M03/M06 A3015 RMK A01 T10321057  RH  083%=      5-min Rain = 0
KPD2 170935Z 30003KT M03/M06 A3015 RMK A01 T10311055  RH  084%=      5-min Rain = 0
KPD2 170936Z 30003KT M03/M06 A3015 RMK A01 T10311055  RH  083%=      5-min Rain = 0
KPD2 170937Z 30003KT M03/M06 A3015 RMK A01 T10311056  RH  083%=      5-min Rain = 0
KPD2 170938Z 29003KT M03/M06 A3014 RMK A01 T10311056  RH  083%=      5-min Rain = 0
KPD2 170939Z 29002KT M03/M06 A3014 RMK A01 T10311056  RH  083%=      5-min Rain = 0
KPD2 170940Z 29002KT M03/M06 A3014 RMK A01 T10321057  RH  083%=      5-min Rain = 0
KPD2 170941Z 30003KT M03/M06 A3014 RMK A01 T10321058  RH  083%=      5-min Rain = 0
KPD2 170942Z 31003KT M03/M06 A3014 RMK A01 T10331058  RH  083%=      5-min Rain = 0
KPD2 170943Z 32002KT M03/M06 A3014 RMK A01 T10331058  RH  083%=      5-min Rain = 0
KPD2 170944Z 31003KT M03/M06 A3015 RMK A01 T10331058  RH  083%=      5-min Rain = 0
KPD2 170945Z 32003KT M03/M06 A3015 RMK A01 T10341058  RH  083%=      5-min Rain = 0
KPD2 170946Z 32003KT M03/M06 A3015 RMK A01 T10341058  RH  083%=      5-min Rain = 0
KPD2 170947Z 32002KT M04/M06 A3015 RMK A01 T10351059  RH  083%=      5-min Rain = 0
KPD2 170948Z 31003KT M04/M06 A3015 RMK A01 T10351058  RH  084%=      5-min Rain = 0
KPD2 170949Z 31003KT M04/M06 A3015 RMK A01 T10351058  RH  084%=      5-min Rain = 0
KPD2 170950Z 29003KT M03/M06 A3015 RMK A01 T10341057  RH  084%=      5-min Rain = 0
KPD2 170951Z 30003KT M03/M06 A3015 RMK A01 T10341058  RH  084%=      5-min Rain = 0
KPD2 170952Z 30003KT M03/M06 A3015 RMK A01 T10341058  RH  084%=      5-min Rain = 0
KPD2 170953Z 30003KT M03/M06 A3015 RMK A01 T10341058  RH  084%=      5-min Rain = 0
KPD2 170954Z 30003KT M04/M06 A3015 RMK A01 T10351059  RH  084%=      5-min Rain = 0
KPD2 170955Z 30003KT M04/M06 A3015 RMK A01 T10351059  RH  083%=      5-min Rain = 0
KPD2 170956Z 30003KT M04/M06 A3015 RMK A01 T10361060  RH  083%=      5-min Rain = 0
KPD2 170957Z 30003KT M04/M06 A3015 RMK A01 T10361060  RH  083%=      5-min Rain = 0
KPD2 170958Z 30003KT M04/M06 A3015 RMK A01 T10371061  RH  084%=      5-min Rain = 0
KPD2 170959Z 31002KT M04/M06 A3015 RMK A01 T10371061  RH  084%=      5-min Rain = 0
KPD2 171000Z 31002KT M04/M06 A3015 RMK A01 T10371061  RH  084%=      5-min Rain = 0
KPD2 171001Z 31002KT M04/M06 A3014 RMK A01 T10381061  RH  084%=      5-min Rain = 0
KPD2 171002Z 31002KT M04/M06 A3014 RMK A01 T10381061  RH  084%=      5-min Rain = 0
KPD2 171003Z 31003KT M04/M06 A3015 RMK A01 T10391061  RH  084%=      5-min Rain = 0
KPD2 171004Z 30003KT M04/M06 A3015 RMK A01 T10391062  RH  084%=      5-min Rain = 0
KPD2 171005Z 30003KT M04/M06 A3015 RMK A01 T10391062  RH  084%=      5-min Rain = 0
KPD2 171006Z 30003KT M04/M06 A3014 RMK A01 T10391062  RH  084%=      5-min Rain = 0
KPD2 171007Z 29003KT M04/M06 A3014 RMK A01 T10391062  RH  084%=      5-min Rain = 0
KPD2 171008Z 29003KT M04/M06 A3014 RMK A01 T10391061  RH  085%=      5-min Rain = 0
KPD2 171009Z 29003KT M04/M06 A3014 RMK A01 T10401062  RH  084%=      5-min Rain = 0
KPD2 171010Z 29003KT M04/M06 A3014 RMK A01 T10401062  RH  084%=      5-min Rain = 0
KPD2 171011Z 29003KT M04/M06 A3014 RMK A01 T10401062  RH  085%=      5-min Rain = 0
KPD2 171012Z 28002KT M04/M06 A3014 RMK A01 T10401062  RH  085%=      5-min Rain = 0
KPD2 171013Z 29002KT M04/M06 A3014 RMK A01 T10401062  RH  085%=      5-min Rain = 0
KPD2 171014Z 30002KT M04/M06 A3014 RMK A01 T10401062  RH  085%=      5-min Rain = 0
KPD2 171015Z 30002KT M04/M06 A3014 RMK A01 T10401061  RH  085%=      5-min Rain = 0
KPD2 171016Z 30002KT M04/M06 A3014 RMK A01 T10401061  RH  085%=      5-min Rain = 0
KPD2 171017Z 30002KT M04/M06 A3014 RMK A01 T10401061  RH  085%=      5-min Rain = 0
KPD2 171018Z 31002KT M04/M06 A3014 RMK A01 T10401061  RH  085%=      5-min Rain = 0
KPD2 171019Z 31002KT M04/M06 A3014 RMK A01 T10401061  RH  085%=      5-min Rain = 0
KPD2 171020Z 31002KT M04/M06 A3014 RMK A01 T10391061  RH  085%=      5-min Rain = 0
KPD2 171021Z 31003KT M04/M06 A3014 RMK A01 T10391061  RH  085%=      5-min Rain = 0
KPD2 171022Z 32003KT M04/M06 A3014 RMK A01 T10391061  RH  085%=      5-min Rain = 0
KPD2 171023Z 32003KT M04/M06 A3014 RMK A01 T10401062  RH  085%=      5-min Rain = 0
KPD2 171024Z 32003KT M04/M06 A3014 RMK A01 T10411062  RH  085%=      5-min Rain = 0
KPD2 171025Z 32003KT M04/M06 A3014 RMK A01 T10411062  RH  085%=      5-min Rain = 0
KPD2 171026Z 33003KT M04/M06 A3014 RMK A01 T10411062  RH  085%=      5-min Rain = 0
KPD2 171027Z 31004KT M04/M06 A3014 RMK A01 T10411062  RH  085%=      5-min Rain = 0
KPD2 171028Z 31003KT M04/M06 A3014 RMK A01 T10401061  RH  085%=      5-min Rain = 0
KPD2 171029Z 32003KT M04/M06 A3014 RMK A01 T10401061  RH  085%=      5-min Rain = 0
KPD2 171030Z 33003KT M04/M06 A3014 RMK A01 T10391060  RH  085%=      5-min Rain = 0
KPD2 171031Z 34003KT M04/M06 A3014 RMK A01 T10391060  RH  085%=      5-min Rain = 0
KPD2 171032Z 34003KT M04/M06 A3014 RMK A01 T10381061  RH  084%=      5-min Rain = 0
KPD2 171033Z 34003KT M04/M06 A3014 RMK A01 T10381061  RH  084%=      5-min Rain = 0
KPD2 171034Z 34003KT M04/M06 A3014 RMK A01 T10381061  RH  084%=      5-min Rain = 0
KPD2 171035Z 35003KT M04/M06 A3014 RMK A01 T10381061  RH  084%=      5-min Rain = 0
KPD2 171036Z 34003KT M04/M06 A3014 RMK A01 T10381062  RH  084%=      5-min Rain = 0
KPD2 171037Z 34003KT M04/M06 A3014 RMK A01 T10381062  RH  083%=      5-min Rain = 0
KPD2 171038Z 34003KT M04/M06 A3014 RMK A01 T10391063  RH  083%=      5-min Rain = 0
KPD2 171039Z 35003KT M04/M06 A3014 RMK A01 T10391063  RH  083%=      5-min Rain = 0
KPD2 171040Z 35004KT M04/M06 A3014 RMK A01 T10401063  RH  084%=      5-min Rain = 0
KPD2 171041Z 35004KT M04/M06 A3014 RMK A01 T10401063  RH  084%=      5-min Rain = 0
KPD2 171042Z 34002KT M04/M06 A3014 RMK A01 T10401063  RH  084%=      5-min Rain = 0
KPD2 171043Z 34003KT M04/M06 A3014 RMK A01 T10401064  RH  083%=      5-min Rain = 0
KPD2 171044Z 33001KT M04/M06 A3014 RMK A01 T10401064  RH  083%=      5-min Rain = 0
KPD2 171045Z 32001KT M04/M06 A3014 RMK A01 T10411064  RH  084%=      5-min Rain = 0
KPD2 171046Z 28001KT M04/M06 A3014 RMK A01 T10411064  RH  084%=      5-min Rain = 0
KPD2 171047Z 28002KT M04/M06 A3014 RMK A01 T10401063  RH  084%=      5-min Rain = 0
KPD2 171048Z 31003KT M04/M06 A3014 RMK A01 T10401063  RH  084%=      5-min Rain = 0
KPD2 171049Z 30002KT M04/M06 A3014 RMK A01 T10401063  RH  084%=      5-min Rain = 0
KPD2 171050Z 30002KT M04/M06 A3014 RMK A01 T10401064  RH  084%=      5-min Rain = 0
KPD2 171051Z 31003KT M04/M07 A3014 RMK A01 T10411065  RH  084%=      5-min Rain = 0
KPD2 171052Z 31003KT M04/M07 A3014 RMK A01 T10411065  RH  084%=      5-min Rain = 0
KPD2 171053Z 31003KT M04/M06 A3014 RMK A01 T10411064  RH  084%=      5-min Rain = 0
KPD2 171054Z 32003KT M04/M07 A3014 RMK A01 T10421065  RH  084%=      5-min Rain = 0
KPD2 171055Z 31003KT M04/M07 A3014 RMK A01 T10421065  RH  084%=      5-min Rain = 0
KPD2 171056Z 33003KT M04/M07 A3014 RMK A01 T10421065  RH  084%=      5-min Rain = 0
KPD2 171057Z 33003KT M04/M07 A3014 RMK A01 T10431066  RH  084%=      5-min Rain = 0
KPD2 171058Z 33003KT M04/M07 A3014 RMK A01 T10431066  RH  084%=      5-min Rain = 0
KPD2 171059Z 32002KT M04/M07 A3014 RMK A01 T10441066  RH  084%=      5-min Rain = 0
KPD2 171100Z 33003KT M04/M07 A3014 RMK A01 T10441066  RH  085%=      5-min Rain = 0
KPD2 171101Z 32003KT M04/M07 A3014 RMK A01 T10441066  RH  085%=      5-min Rain = 0
KPD2 171102Z 32003KT M04/M07 A3014 RMK A01 T10441066  RH  085%=      5-min Rain = 0
KPD2 171103Z 30002KT M04/M07 A3014 RMK A01 T10441065  RH  085%=      5-min Rain = 0
KPD2 171104Z 32002KT M04/M07 A3014 RMK A01 T10441066  RH  085%=      5-min Rain = 0
KPD2 171105Z 32002KT M04/M07 A3014 RMK A01 T10441065  RH  085%=      5-min Rain = 0
KPD2 171106Z 31001KT M04/M07 A3014 RMK A01 T10441066  RH  085%=      5-min Rain = 0
KPD2 171107Z 26001KT M05/M07 A3014 RMK A01 T10451066  RH  085%=      5-min Rain = 0
KPD2 171108Z 26002KT M04/M07 A3014 RMK A01 T10441066  RH  085%=      5-min Rain = 0
KPD2 171109Z 26001KT M04/M07 A3014 RMK A01 T10441065  RH  085%=      5-min Rain = 0
KPD2 171110Z 26000KT M04/M07 A3014 RMK A01 T10441065  RH  085%=      5-min Rain = 0
KPD2 171111Z 00000KT M04/M07 A3014 RMK A01 T10441065  RH  086%=      5-min Rain = 0
KPD2 171112Z 26000KT M04/M07 A3014 RMK A01 T10441065  RH  086%=      5-min Rain = 0
KPD2 171113Z 26000KT M04/M06 A3014 RMK A01 T10441064  RH  086%=      5-min Rain = 0
KPD2 171114Z 26000KT M04/M06 A3014 RMK A01 T10431064  RH  086%=      5-min Rain = 0
KPD2 171115Z 26000KT M04/M06 A3014 RMK A01 T10431064  RH  086%=      5-min Rain = 0
KPD2 171116Z 26000KT M04/M06 A3014 RMK A01 T10431063  RH  086%=      5-min Rain = 0
KPD2 171117Z 26001KT M04/M06 A3014 RMK A01 T10421062  RH  086%=      5-min Rain = 0
KPD2 171118Z 26001KT M04/M06 A3014 RMK A01 T10421062  RH  086%=      5-min Rain = 0
KPD2 171119Z 26000KT M04/M06 A3014 RMK A01 T10411062  RH  086%=      5-min Rain = 0
KPD2 171120Z 26000KT M04/M06 A3014 RMK A01 T10401061  RH  085%=      5-min Rain = 0
KPD2 171121Z 00000KT M04/M06 A3014 RMK A01 T10401061  RH  085%=      5-min Rain = 0
KPD2 171122Z 00000KT M04/M06 A3014 RMK A01 T10391061  RH  085%=      5-min Rain = 0
KPD2 171123Z 00000KT M04/M06 A3014 RMK A01 T10391060  RH  085%=      5-min Rain = 0
KPD2 171124Z 26000KT M04/M06 A3014 RMK A01 T10391060  RH  085%=      5-min Rain = 0
KPD2 171125Z 26002KT M04/M06 A3014 RMK A01 T10381060  RH  085%=      5-min Rain = 0
KPD2 171126Z 34001KT M04/M06 A3014 RMK A01 T10391061  RH  085%=      5-min Rain = 0
KPD2 171127Z 31001KT M04/M06 A3014 RMK A01 T10391061  RH  084%=      5-min Rain = 0
KPD2 171128Z 29001KT M04/M06 A3014 RMK A01 T10381061  RH  084%=      5-min Rain = 0
KPD2 171129Z 30001KT M04/M06 A3014 RMK A01 T10381061  RH  084%=      5-min Rain = 0
KPD2 171130Z 30001KT M04/M06 A3014 RMK A01 T10381061  RH  084%=      5-min Rain = 0
KPD2 171131Z 30002KT M04/M06 A3014 RMK A01 T10381061  RH  084%=      5-min Rain = 0
KPD2 171132Z 30002KT M04/M06 A3014 RMK A01 T10381061  RH  084%=      5-min Rain = 0
KPD2 171133Z 30001KT M04/M06 A3014 RMK A01 T10381062  RH  084%=      5-min Rain = 0
KPD2 171134Z 30002KT M04/M06 A3014 RMK A01 T10381061  RH  084%=      5-min Rain = 0
KPD2 171135Z 30002KT M04/M06 A3014 RMK A01 T10391062  RH  084%=      5-min Rain = 0
KPD2 171136Z 30003KT M04/M06 A3015 RMK A01 T10391063  RH  084%=      5-min Rain = 0
KPD2 171137Z 31003KT M04/M06 A3015 RMK A01 T10401064  RH  084%=      5-min Rain = 0
KPD2 171138Z 32003KT M04/M06 A3015 RMK A01 T10401064  RH  084%=      5-min Rain = 0
KPD2 171139Z 31002KT M04/M07 A3015 RMK A01 T10411065  RH  084%=      5-min Rain = 0
KPD2 171140Z 30002KT M04/M07 A3015 RMK A01 T10411065  RH  084%=      5-min Rain = 0
KPD2 171141Z 29003KT M04/M07 A3015 RMK A01 T10421065  RH  084%=      5-min Rain = 0
KPD2 171142Z 29003KT M04/M07 A3015 RMK A01 T10421065  RH  084%=      5-min Rain = 0
KPD2 171143Z 29002KT M04/M07 A3015 RMK A01 T10421066  RH  084%=      5-min Rain = 0
KPD2 171144Z 29002KT M04/M07 A3015 RMK A01 T10431066  RH  084%=      5-min Rain = 0
KPD2 171145Z 29002KT M04/M07 A3015 RMK A01 T10431065  RH  084%=      5-min Rain = 0
KPD2 171146Z 29001KT M04/M07 A3015 RMK A01 T10431066  RH  084%=      5-min Rain = 0
KPD2 171147Z 29001KT M04/M07 A3015 RMK A01 T10431066  RH  084%=      5-min Rain = 0
KPD2 171148Z 29001KT M04/M07 A3015 RMK A01 T10441066  RH  084%=      5-min Rain = 0
KPD2 171149Z 28002KT M04/M07 A3015 RMK A01 T10441067  RH  084%=      5-min Rain = 0
KPD2 171150Z 28002KT M05/M07 A3015 RMK A01 T10451067  RH  084%=      5-min Rain = 0
KPD2 171151Z 28001KT M05/M07 A3015 RMK A01 T10451067  RH  084%=      5-min Rain = 0
KPD2 171152Z 28000KT M05/M07 A3015 RMK A01 T10451068  RH  084%=      5-min Rain = 0
KPD2 171153Z 28001KT M05/M07 A3015 RMK A01 T10451067  RH  085%=      5-min Rain = 0
KPD2 171154Z 28001KT M05/M07 A3015 RMK A01 T10451067  RH  085%=      5-min Rain = 0
KPD2 171155Z 28001KT M05/M07 A3015 RMK A01 T10451067  RH  085%=      5-min Rain = 0
KPD2 171156Z 28002KT M05/M07 A3015 RMK A01 T10451066  RH  085%=      5-min Rain = 0
KPD2 171157Z 28002KT M05/M07 A3015 RMK A01 T10451066  RH  085%=      5-min Rain = 0
KPD2 171158Z 28001KT M05/M07 A3015 RMK A01 T10451065  RH  086%=      5-min Rain = 0
KPD2 171159Z 28000KT M04/M07 A3015 RMK A01 T10441065  RH  086%=      5-min Rain = 0
KPD2 171200Z 28000KT M04/M07 A3015 RMK A01 T10441065  RH  086%=      5-min Rain = 0
KPD2 171201Z 28000KT M05/M07 A3015 RMK A01 T10451065  RH  086%=      5-min Rain = 0
KPD2 171202Z 28000KT M04/M07 A3015 RMK A01 T10441065  RH  086%=      5-min Rain = 0
KPD2 171203Z 28001KT M04/M06 A3015 RMK A01 T10441064  RH  086%=      5-min Rain = 0
KPD2 171204Z 28001KT M04/M06 A3015 RMK A01 T10441064  RH  086%=      5-min Rain = 0
KPD2 171205Z 28000KT M04/M06 A3015 RMK A01 T10431064  RH  086%=      5-min Rain = 0
KPD2 171206Z 28001KT M04/M06 A3016 RMK A01 T10431064  RH  086%=      5-min Rain = 0
KPD2 171207Z 32001KT M04/M06 A3016 RMK A01 T10431064  RH  086%=      5-min Rain = 0
KPD2 171208Z 33002KT M04/M06 A3016 RMK A01 T10431064  RH  085%=      5-min Rain = 0
KPD2 171209Z 33001KT M04/M06 A3016 RMK A01 T10441064  RH  085%=      5-min Rain = 0
KPD2 171210Z 35002KT M04/M06 A3016 RMK A01 T10431064  RH  086%=      5-min Rain = 0
KPD2 171211Z 35002KT M04/M06 A3016 RMK A01 T10431063  RH  086%=      5-min Rain = 0
KPD2 171212Z 34002KT M04/M06 A3016 RMK A01 T10421063  RH  086%=      5-min Rain = 0
KPD2 171213Z 34002KT M04/M06 A3016 RMK A01 T10411062  RH  086%=      5-min Rain = 0
KPD2 171214Z 32002KT M04/M06 A3016 RMK A01 T10411062  RH  085%=      5-min Rain = 0
KPD2 171215Z 32001KT M04/M06 A3016 RMK A01 T10401061  RH  085%=      5-min Rain = 0
KPD2 171216Z 32001KT M04/M06 A3016 RMK A01 T10401061  RH  085%=      5-min Rain = 0
KPD2 171217Z 32001KT M04/M06 A3016 RMK A01 T10391060  RH  085%=      5-min Rain = 0
KPD2 171218Z 32001KT M04/M06 A3016 RMK A01 T10391061  RH  085%=      5-min Rain = 0
KPD2 171219Z 32001KT M04/M06 A3016 RMK A01 T10391061  RH  084%=      5-min Rain = 0
KPD2 171220Z 33002KT M04/M06 A3016 RMK A01 T10381061  RH  084%=      5-min Rain = 0
KPD2 171221Z 33002KT M04/M06 A3016 RMK A01 T10371061  RH  084%=      5-min Rain = 0
KPD2 171222Z 33002KT M04/M06 A3016 RMK A01 T10371061  RH  084%=      5-min Rain = 0
KPD2 171223Z 33002KT M04/M06 A3016 RMK A01 T10371062  RH  083%=      5-min Rain = 0
KPD2 171224Z 32002KT M04/M06 A3016 RMK A01 T10371062  RH  083%=      5-min Rain = 0
KPD2 171225Z 31002KT M04/M06 A3016 RMK A01 T10381063  RH  083%=      5-min Rain = 0
KPD2 171226Z 31002KT M04/M06 A3016 RMK A01 T10381064  RH  082%=      5-min Rain = 0
KPD2 171227Z 32002KT M04/M07 A3016 RMK A01 T10391065  RH  082%=      5-min Rain = 0
KPD2 171228Z 32003KT M04/M07 A3016 RMK A01 T10401066  RH  082%=      5-min Rain = 0
KPD2 171229Z 32003KT M04/M07 A3016 RMK A01 T10411068  RH  082%=      5-min Rain = 0
KPD2 171230Z 31002KT M04/M07 A3016 RMK A01 T10421069  RH  082%=      5-min Rain = 0
KPD2 171231Z 32002KT M04/M07 A3016 RMK A01 T10431069  RH  082%=      5-min Rain = 0
KPD2 171232Z 33003KT M04/M07 A3016 RMK A01 T10441069  RH  083%=      5-min Rain = 0
KPD2 171233Z 33002KT M05/M07 A3016 RMK A01 T10451069  RH  083%=      5-min Rain = 0
KPD2 171234Z 33002KT M05/M07 A3016 RMK A01 T10451069  RH  083%=      5-min Rain = 0
KPD2 171235Z 33001KT M05/M07 A3016 RMK A01 T10451069  RH  083%=      5-min Rain = 0
KPD2 171236Z 32002KT M05/M07 A3016 RMK A01 T10461069  RH  084%=      5-min Rain = 0
KPD2 171237Z 33002KT M05/M07 A3016 RMK A01 T10451067  RH  084%=      5-min Rain = 0
KPD2 171238Z 31002KT M04/M06 A3016 RMK A01 T10421064  RH  085%=      5-min Rain = 0
KPD2 171239Z 30002KT M04/M06 A3016 RMK A01 T10401062  RH  085%=      5-min Rain = 0
KPD2 171240Z 31002KT M04/M06 A3016 RMK A01 T10381060  RH  085%=      5-min Rain = 0
KPD2 171241Z 30002KT M04/M06 A3016 RMK A01 T10371060  RH  084%=      5-min Rain = 0
KPD2 171242Z 30002KT M04/M06 A3016 RMK A01 T10361060  RH  083%=      5-min Rain = 0
KPD2 171243Z 30003KT M04/M06 A3016 RMK A01 T10351061  RH  082%=      5-min Rain = 0
KPD2 171244Z 31003KT M04/M06 A3016 RMK A01 T10371064  RH  081%=      5-min Rain = 0
KPD2 171245Z 30003KT M04/M07 A3016 RMK A01 T10381066  RH  081%=      5-min Rain = 0
KPD2 171246Z 30003KT M04/M07 A3016 RMK A01 T10391067  RH  081%=      5-min Rain = 0
KPD2 171247Z 30003KT M04/M07 A3016 RMK A01 T10401068  RH  081%=      5-min Rain = 0
KPD2 171248Z 31002KT M04/M07 A3016 RMK A01 T10411069  RH  081%=      5-min Rain = 0
KPD2 171249Z 32002KT M04/M07 A3016 RMK A01 T10411068  RH  081%=      5-min Rain = 0
KPD2 171250Z 33002KT M04/M07 A3016 RMK A01 T10421068  RH  082%=      5-min Rain = 0
KPD2 171251Z 33002KT M04/M07 A3016 RMK A01 T10421067  RH  082%=      5-min Rain = 0
KPD2 171252Z 30002KT M04/M07 A3016 RMK A01 T10411066  RH  083%=      5-min Rain = 0
KPD2 171253Z 29001KT M04/M07 A3016 RMK A01 T10401065  RH  083%=      5-min Rain = 0
KPD2 171254Z 00000KT M04/M07 A3016 RMK A01 T10401065  RH  083%=      5-min Rain = 0
KPD2 171255Z 00000KT M04/M07 A3016 RMK A01 T10411067  RH  082%=      5-min Rain = 0
KPD2 171256Z 00000KT M04/M07 A3016 RMK A01 T10411067  RH  082%=      5-min Rain = 0
KPD2 171257Z 00000KT M04/M07 A3016 RMK A01 T10411067  RH  082%=      5-min Rain = 0
KPD2 171258Z 00000KT M04/M07 A3016 RMK A01 T10421068  RH  082%=      5-min Rain = 0
KPD2 171259Z 00000KT M04/M07 A3016 RMK A01 T10431069  RH  082%=      5-min Rain = 0
KPD2 171300Z 00000KT M04/M07 A3016 RMK A01 T10431069  RH  082%=      5-min Rain = 0
KPD2 171301Z 00000KT M04/M07 A3016 RMK A01 T10441070  RH  082%=      5-min Rain = 0
KPD2 171302Z 00000KT M04/M07 A3016 RMK A01 T10441070  RH  082%=      5-min Rain = 0
KPD2 171303Z 00000KT M04/M07 A3016 RMK A01 T10441070  RH  082%=      5-min Rain = 0
KPD2 171304Z 00000KT M05/M07 A3016 RMK A01 T10451070  RH  083%=      5-min Rain = 0
KPD2 171305Z 00000KT M05/M07 A3017 RMK A01 T10461070  RH  083%=      5-min Rain = 0
KPD2 171306Z 00000KT M05/M07 A3017 RMK A01 T10451070  RH  083%=      5-min Rain = 0
KPD2 171307Z 00000KT M05/M07 A3017 RMK A01 T10451069  RH  084%=      5-min Rain = 0
KPD2 171308Z 00000KT M05/M07 A3017 RMK A01 T10451069  RH  084%=      5-min Rain = 0
KPD2 171309Z 00000KT M05/M07 A3017 RMK A01 T10451069  RH  084%=      5-min Rain = 0
KPD2 171310Z 00000KT M04/M07 A3017 RMK A01 T10441066  RH  084%=      5-min Rain = 0
KPD2 171311Z 00000KT M04/M06 A3017 RMK A01 T10421064  RH  085%=      5-min Rain = 0
KPD2 171312Z 00000KT M04/M06 A3017 RMK A01 T10401063  RH  085%=      5-min Rain = 0
KPD2 171313Z 29000KT M04/M06 A3017 RMK A01 T10401063  RH  084%=      5-min Rain = 0
KPD2 171314Z 00000KT M04/M07 A3017 RMK A01 T10411066  RH  083%=      5-min Rain = 0
KPD2 171315Z 00000KT M04/M07 A3017 RMK A01 T10441071  RH  082%=      5-min Rain = 0
KPD2 171316Z 00000KT M05/M08 A3017 RMK A01 T10471075  RH  081%=      5-min Rain = 0
KPD2 171317Z 00000KT M05/M07 A3017 RMK A01 T10471074  RH  082%=      5-min Rain = 0
KPD2 171318Z 00000KT M05/M07 A3017 RMK A01 T10471072  RH  083%=      5-min Rain = 0
KPD2 171319Z 00000KT M05/M07 A3017 RMK A01 T10471072  RH  083%=      5-min Rain = 0
KPD2 171320Z 29000KT M05/M07 A3017 RMK A01 T10471072  RH  083%=      5-min Rain = 0
KPD2 171321Z 29001KT M05/M07 A3018 RMK A01 T10481072  RH  083%=      5-min Rain = 0
KPD2 171322Z 29000KT M05/M07 A3018 RMK A01 T10481071  RH  084%=      5-min Rain = 0
KPD2 171323Z 29001KT M05/M07 A3018 RMK A01 T10491072  RH  084%=      5-min Rain = 0
KPD2 171324Z 29001KT M05/M07 A3018 RMK A01 T10491072  RH  084%=      5-min Rain = 0
KPD2 171325Z 29002KT M05/M07 A3018 RMK A01 T10501072  RH  084%=      5-min Rain = 0
KPD2 171326Z 29002KT M05/M07 A3018 RMK A01 T10501072  RH  085%=      5-min Rain = 0
KPD2 171327Z 29002KT M05/M07 A3018 RMK A01 T10501072  RH  085%=      5-min Rain = 0
KPD2 171328Z 29001KT M05/M07 A3018 RMK A01 T10511073  RH  085%=      5-min Rain = 0
KPD2 171329Z 29001KT M05/M07 A3018 RMK A01 T10511072  RH  085%=      5-min Rain = 0
KPD2 171330Z 29001KT M05/M07 A3018 RMK A01 T10511072  RH  085%=      5-min Rain = 0
KPD2 171331Z 29001KT M05/M07 A3018 RMK A01 T10511072  RH  085%=      5-min Rain = 0
KPD2 171332Z 29002KT M05/M07 A3018 RMK A01 T10521074  RH  085%=      5-min Rain = 0
KPD2 171333Z 29002KT M05/M08 A3018 RMK A01 T10541076  RH  085%=      5-min Rain = 0
KPD2 171334Z 31003KT M06/M08 A3019 RMK A01 T10551077  RH  085%=      5-min Rain = 0
KPD2 171335Z 31002KT M06/M08 A3019 RMK A01 T10571079  RH  085%=      5-min Rain = 0
KPD2 171336Z 31002KT M06/M08 A3019 RMK A01 T10581080  RH  085%=      5-min Rain = 0
KPD2 171337Z 31003KT M06/M08 A3019 RMK A01 T10591080  RH  085%=      5-min Rain = 0
KPD2 171338Z 31003KT M06/M08 A3019 RMK A01 T10601080  RH  085%=      5-min Rain = 0
KPD2 171339Z 31003KT M06/M08 A3019 RMK A01 T10601080  RH  086%=      5-min Rain = 0
KPD2 171340Z 31002KT M06/M08 A3019 RMK A01 T10611081  RH  086%=      5-min Rain = 0
KPD2 171341Z 30003KT M06/M08 A3019 RMK A01 T10611080  RH  086%=      5-min Rain = 0
KPD2 171342Z 30002KT M06/M08 A3019 RMK A01 T10611080  RH  087%=      5-min Rain = 0
KPD2 171343Z 31002KT M06/M08 A3019 RMK A01 T10611079  RH  087%=      5-min Rain = 0
KPD2 171344Z 31003KT M06/M08 A3019 RMK A01 T10611079  RH  087%=      5-min Rain = 0
KPD2 171345Z 31003KT M06/M08 A3019 RMK A01 T10611078  RH  088%=      5-min Rain = 0
KPD2 171346Z 33004KT M06/M08 A3019 RMK A01 T10611078  RH  088%=      5-min Rain = 0
KPD2 171347Z 31003KT M06/M08 A3019 RMK A01 T10601077  RH  088%=      5-min Rain = 0
KPD2 171348Z 33002KT M06/M08 A3019 RMK A01 T10601076  RH  088%=      5-min Rain = 0
KPD2 171349Z 32003KT M06/M08 A3019 RMK A01 T10591075  RH  088%=      5-min Rain = 0
KPD2 171350Z 32002KT M06/M07 A3019 RMK A01 T10571073  RH  088%=      5-min Rain = 0
KPD2 171351Z 35003KT M06/M07 A3019 RMK A01 T10581074  RH  088%=      5-min Rain = 0
KPD2 171352Z 35003KT M06/M07 A3019 RMK A01 T10561072  RH  088%=      5-min Rain = 0
KPD2 171353Z 32003KT M05/M07 A3018 RMK A01 T10541069  RH  089%=      5-min Rain = 0
KPD2 171354Z 30003KT M05/M07 A3018 RMK A01 T10511066  RH  089%=      5-min Rain = 0
KPD2 171355Z 31003KT M05/M06 A3018 RMK A01 T10481064  RH  089%=      5-min Rain = 0
KPD2 171356Z 30002KT M05/M07 A3018 RMK A01 T10481065  RH  088%=      5-min Rain = 0
KPD2 171357Z 30003KT M05/M07 A3018 RMK A01 T10471065  RH  087%=      5-min Rain = 0
KPD2 171358Z 31003KT M05/M07 A3018 RMK A01 T10461065  RH  087%=      5-min Rain = 0
KPD2 171359Z 31003KT M05/M07 A3018 RMK A01 T10451065  RH  086%=      5-min Rain = 0
KPD2 171400Z 30002KT M05/M07 A3018 RMK A01 T10451066  RH  085%=      5-min Rain = 0
KPD2 171401Z 30003KT M05/M07 A3018 RMK A01 T10451067  RH  085%=      5-min Rain = 0
KPD2 171402Z 32002KT M05/M07 A3018 RMK A01 T10451068  RH  084%=      5-min Rain = 0
KPD2 171403Z 32001KT M05/M07 A3018 RMK A01 T10451068  RH  084%=      5-min Rain = 0
KPD2 171404Z 30001KT M05/M07 A3018 RMK A01 T10461069  RH  084%=      5-min Rain = 0
KPD2 171405Z 29001KT M05/M07 A3018 RMK A01 T10471071  RH  083%=      5-min Rain = 0
KPD2 171406Z 29002KT M05/M07 A3018 RMK A01 T10481072  RH  083%=      5-min Rain = 0
KPD2 171407Z 29002KT M05/M07 A3018 RMK A01 T10481073  RH  083%=      5-min Rain = 0
KPD2 171408Z 29002KT M05/M07 A3018 RMK A01 T10501074  RH  083%=      5-min Rain = 0
KPD2 171409Z 29002KT M05/M08 A3018 RMK A01 T10501075  RH  083%=      5-min Rain = 0
KPD2 171410Z 29002KT M05/M08 A3018 RMK A01 T10511076  RH  083%=      5-min Rain = 0
KPD2 171411Z 29002KT M05/M08 A3018 RMK A01 T10511075  RH  083%=      5-min Rain = 0
KPD2 171412Z 29002KT M05/M08 A3018 RMK A01 T10521076  RH  083%=      5-min Rain = 0
KPD2 171413Z 29001KT M05/M08 A3018 RMK A01 T10521076  RH  084%=      5-min Rain = 0
KPD2 171414Z 29003KT M05/M08 A3018 RMK A01 T10531076  RH  084%=      5-min Rain = 0
KPD2 171415Z 29003KT M05/M08 A3018 RMK A01 T10531075  RH  084%=      5-min Rain = 0
KPD2 171416Z 29002KT M05/M08 A3018 RMK A01 T10531075  RH  084%=      5-min Rain = 0
KPD2 171417Z 29002KT M05/M08 A3018 RMK A01 T10531076  RH  084%=      5-min Rain = 0
KPD2 171418Z 31002KT M05/M08 A3018 RMK A01 T10531076  RH  084%=      5-min Rain = 0
KPD2 171419Z 31003KT M05/M08 A3018 RMK A01 T10531076  RH  084%=      5-min Rain = 0
KPD2 171420Z 30003KT M05/M08 A3018 RMK A01 T10541076  RH  084%=      5-min Rain = 0
KPD2 171421Z 30003KT M05/M08 A3018 RMK A01 T10531075  RH  085%=      5-min Rain = 0
KPD2 171422Z 31003KT M05/M08 A3018 RMK A01 T10531075  RH  085%=      5-min Rain = 0
KPD2 171423Z 30002KT M05/M07 A3018 RMK A01 T10531074  RH  085%=      5-min Rain = 0
KPD2 171424Z 30003KT M05/M07 A3018 RMK A01 T10521073  RH  085%=      5-min Rain = 0
KPD2 171425Z 30003KT M05/M07 A3018 RMK A01 T10521073  RH  085%=      5-min Rain = 0
KPD2 171426Z 30003KT M05/M07 A3018 RMK A01 T10511072  RH  085%=      5-min Rain = 0
KPD2 171427Z 29003KT M05/M07 A3018 RMK A01 T10511072  RH  085%=      5-min Rain = 0
KPD2 171428Z 29002KT M05/M07 A3019 RMK A01 T10511072  RH  085%=      5-min Rain = 0
KPD2 171429Z 30002KT M05/M07 A3019 RMK A01 T10501072  RH  085%=      5-min Rain = 0
KPD2 171430Z 31002KT M05/M07 A3019 RMK A01 T10501072  RH  084%=      5-min Rain = 0
KPD2 171431Z 31002KT M05/M07 A3019 RMK A01 T10501072  RH  084%=      5-min Rain = 0
KPD2 171432Z 30002KT M05/M07 A3019 RMK A01 T10501072  RH  084%=      5-min Rain = 0
KPD2 171433Z 33002KT M05/M07 A3019 RMK A01 T10501073  RH  084%=      5-min Rain = 0
KPD2 171434Z 33002KT M05/M07 A3019 RMK A01 T10491072  RH  084%=      5-min Rain = 0
KPD2 171435Z 33001KT M05/M07 A3019 RMK A01 T10491071  RH  084%=      5-min Rain = 0
KPD2 171436Z 35002KT M05/M07 A3019 RMK A01 T10481070  RH  085%=      5-min Rain = 0
KPD2 171437Z 34003KT M05/M07 A3019 RMK A01 T10471069  RH  084%=      5-min Rain = 0
KPD2 171438Z 34002KT M05/M07 A3019 RMK A01 T10471069  RH  084%=      5-min Rain = 0
KPD2 171439Z 35003KT M05/M07 A3019 RMK A01 T10461069  RH  084%=      5-min Rain = 0
KPD2 171440Z 00003KT M05/M07 A302 RMK A01 T10451069  RH  084%=      5-min Rain = 0
KPD2 171441Z 34003KT M04/M07 A302 RMK A01 T10441066  RH  084%=      5-min Rain = 0
KPD2 171442Z 32003KT M04/M07 A302 RMK A01 T10421065  RH  084%=      5-min Rain = 0
KPD2 171443Z 31002KT M04/M06 A302 RMK A01 T10401063  RH  084%=      5-min Rain = 0
KPD2 171444Z 35003KT M04/M06 A302 RMK A01 T10381063  RH  083%=      5-min Rain = 0
KPD2 171445Z 00004KT M04/M06 A302 RMK A01 T10371063  RH  082%=      5-min Rain = 0
KPD2 171446Z 35003KT M04/M06 A302 RMK A01 T10361063  RH  081%=      5-min Rain = 0
KPD2 171447Z 35003KT M04/M06 A302 RMK A01 T10351063  RH  081%=      5-min Rain = 0
KPD2 171448Z 35001KT M03/M06 A302 RMK A01 T10341063  RH  081%=      5-min Rain = 0
KPD2 171449Z 34003KT M03/M06 A302 RMK A01 T10341064  RH  080%=      5-min Rain = 0
KPD2 171450Z 35002KT M03/M06 A302 RMK A01 T10341064  RH  079%=      5-min Rain = 0
KPD2 171451Z 35002KT M03/M07 A302 RMK A01 T10341065  RH  079%=      5-min Rain = 0
KPD2 171452Z 35003KT M03/M07 A302 RMK A01 T10341065  RH  079%=      5-min Rain = 0
KPD2 171453Z 34002KT M03/M07 A302 RMK A01 T10341065  RH  079%=      5-min Rain = 0
KPD2 171454Z 33002KT M03/M06 A302 RMK A01 T10331064  RH  079%=      5-min Rain = 0
KPD2 171455Z 33001KT M03/M06 A302 RMK A01 T10321064  RH  079%=      5-min Rain = 0
KPD2 171456Z 33000KT M03/M06 A302 RMK A01 T10311064  RH  078%=      5-min Rain = 0
KPD2 171457Z 33000KT M03/M06 A302 RMK A01 T10301064  RH  078%=      5-min Rain = 0
KPD2 171458Z 33001KT M03/M06 A302 RMK A01 T10291064  RH  077%=      5-min Rain = 0
KPD2 171459Z 33000KT M03/M06 A302 RMK A01 T10281063  RH  077%=      5-min Rain = 0
KPD2 171500Z 26002KT M03/M06 A302 RMK A01 T10271062  RH  077%=      5-min Rain = 0
KPD2 171501Z 26002KT M03/M06 A302 RMK A01 T10261062  RH  076%=      5-min Rain = 0
KPD2 171502Z 26001KT M03/M06 A302 RMK A01 T10261064  RH  076%=      5-min Rain = 0
KPD2 171503Z 26000KT M03/M06 A302 RMK A01 T10271064  RH  076%=      5-min Rain = 0
KPD2 171504Z 26000KT M03/M06 A302 RMK A01 T10261064  RH  075%=      5-min Rain = 0
KPD2 171505Z 26000KT M03/M06 A302 RMK A01 T10261064  RH  075%=      5-min Rain = 0
KPD2 171506Z 26000KT M03/M06 A302 RMK A01 T10261064  RH  075%=      5-min Rain = 0
KPD2 171507Z 26001KT M03/M06 A302 RMK A01 T10261064  RH  075%=      5-min Rain = 0
KPD2 171508Z 26000KT M03/M06 A302 RMK A01 T10261063  RH  075%=      5-min Rain = 0
KPD2 171509Z 00000KT M03/M06 A302 RMK A01 T10261063  RH  075%=      5-min Rain = 0
KPD2 171510Z 00000KT M03/M06 A302 RMK A01 T10261064  RH  075%=      5-min Rain = 0
KPD2 171511Z 00000KT M03/M07 A302 RMK A01 T10261065  RH  075%=      5-min Rain = 0
KPD2 171512Z 00000KT M03/M07 A302 RMK A01 T10261065  RH  075%=      5-min Rain = 0
KPD2 171513Z 00000KT M03/M06 A302 RMK A01 T10261064  RH  075%=      5-min Rain = 0
KPD2 171514Z 26000KT M03/M06 A302 RMK A01 T10261063  RH  076%=      5-min Rain = 0
KPD2 171515Z 26000KT M03/M06 A302 RMK A01 T10251062  RH  076%=      5-min Rain = 0
KPD2 171516Z 26000KT M03/M06 A302 RMK A01 T10251061  RH  076%=      5-min Rain = 0
KPD2 171517Z 00000KT M02/M06 A302 RMK A01 T10241060  RH  076%=      5-min Rain = 0
KPD2 171518Z 00000KT M02/M06 A302 RMK A01 T10231060  RH  076%=      5-min Rain = 0
KPD2 171519Z 26000KT M02/M06 A302 RMK A01 T10221059  RH  076%=      5-min Rain = 0
KPD2 171520Z 26001KT M02/M06 A302 RMK A01 T10211059  RH  075%=      5-min Rain = 0
KPD2 171521Z 00000KT M02/M06 A302 RMK A01 T10201059  RH  075%=      5-min Rain = 0
KPD2 171522Z 00000KT M02/M06 A302 RMK A01 T10191058  RH  075%=      5-min Rain = 0
KPD2 171523Z 00000KT M02/M06 A302 RMK A01 T10171057  RH  074%=      5-min Rain = 0
KPD2 171524Z 00000KT M02/M06 A3021 RMK A01 T10161057  RH  074%=      5-min Rain = 0
KPD2 171525Z 00000KT M02/M06 A3021 RMK A01 T10151057  RH  073%=      5-min Rain = 0
KPD2 171526Z 00000KT M01/M06 A3021 RMK A01 T10141057  RH  072%=      5-min Rain = 0
KPD2 171527Z 00000KT M01/M06 A3021 RMK A01 T10131057  RH  072%=      5-min Rain = 0
KPD2 171528Z 00000KT M01/M06 A3021 RMK A01 T10121057  RH  071%=      5-min Rain = 0
KPD2 171529Z 00000KT M01/M06 A3021 RMK A01 T10111057  RH  071%=      5-min Rain = 0
KPD2 171530Z 00000KT M01/M06 A3021 RMK A01 T10101056  RH  071%=      5-min Rain = 0
KPD2 171531Z 00000KT M01/M05 A3021 RMK A01 T10081054  RH  071%=      5-min Rain = 0
KPD2 171532Z 00000KT M01/M05 A3021 RMK A01 T10071054  RH  070%=      5-min Rain = 0
KPD2 171533Z 00000KT M01/M05 A302 RMK A01 T10051054  RH  070%=      5-min Rain = 0
KPD2 171534Z 00000KT M00/M05 A3021 RMK A01 T10031052  RH  070%=      5-min Rain = 0
KPD2 171535Z 00000KT M00/M05 A3021 RMK A01 T10011050  RH  070%=      5-min Rain = 0
KPD2 171536Z 00000KT 00/M05 A3021 RMK A01 T00011049  RH  069%=      5-min Rain = 0
KPD2 171537Z 26000KT 00/M05 A3021 RMK A01 T00041047  RH  068%=      5-min Rain = 0
KPD2 171538Z 26001KT 01/M05 A3021 RMK A01 T00051049  RH  067%=      5-min Rain = 0
KPD2 171539Z 25001KT 01/M05 A3021 RMK A01 T00071049  RH  066%=      5-min Rain = 0
KPD2 171540Z 25001KT 01/M05 A3021 RMK A01 T00091050  RH  065%=      5-min Rain = 0
KPD2 171541Z 25001KT 01/M05 A3021 RMK A01 T00111049  RH  065%=      5-min Rain = 0
KPD2 171542Z 25001KT 01/M05 A3021 RMK A01 T00131048  RH  064%=      5-min Rain = 0
KPD2 171543Z 25001KT 02/M05 A3021 RMK A01 T00151048  RH  063%=      5-min Rain = 0
KPD2 171544Z 00000KT 02/M05 A3022 RMK A01 T00171051  RH  061%=      5-min Rain = 0
KPD2 171545Z 26000KT 02/M05 A3022 RMK A01 T00201050  RH  059%=      5-min Rain = 0
KPD2 171546Z 01001KT 02/M05 A3022 RMK A01 T00241049  RH  059%=      5-min Rain = 0
KPD2 171547Z 05000KT 03/M05 A3022 RMK A01 T00251051  RH  057%=      5-min Rain = 0
KPD2 171548Z 05001KT 03/M05 A3022 RMK A01 T00251051  RH  057%=      5-min Rain = 0
KPD2 171549Z 05001KT 03/M05 A3022 RMK A01 T00251052  RH  057%=      5-min Rain = 0
KPD2 171550Z 07000KT 03/M05 A3022 RMK A01 T00251054  RH  056%=      5-min Rain = 0
KPD2 171551Z 07001KT 03/M05 A3022 RMK A01 T00251052  RH  057%=      5-min Rain = 0
KPD2 171552Z 06001KT 03/M05 A3022 RMK A01 T00261050  RH  057%=      5-min Rain = 0
KPD2 171553Z 03002KT 03/M05 A3022 RMK A01 T00271049  RH  057%=      5-min Rain = 0
KPD2 171554Z 02003KT 03/M05 A3022 RMK A01 T00281053  RH  055%=      5-min Rain = 0
KPD2 171555Z 03002KT 03/M05 A3022 RMK A01 T00291053  RH  055%=      5-min Rain = 0
KPD2 171556Z 02002KT 03/M05 A3021 RMK A01 T00301054  RH  054%=      5-min Rain = 0
KPD2 171557Z 02003KT 03/M05 A3022 RMK A01 T00301054  RH  054%=      5-min Rain = 0
KPD2 171558Z 01002KT 03/M06 A3022 RMK A01 T00301055  RH  054%=      5-min Rain = 0
KPD2 171559Z 02002KT 03/M06 A3022 RMK A01 T00301056  RH  053%=      5-min Rain = 0
KPD2 171600Z 01002KT 03/M05 A3022 RMK A01 T00301054  RH  054%=      5-min Rain = 0
KPD2 171601Z 00001KT 03/M05 A3022 RMK A01 T00311052  RH  054%=      5-min Rain = 0
KPD2 171602Z 34002KT 03/M05 A3021 RMK A01 T00321053  RH  054%=      5-min Rain = 0
KPD2 171603Z 34001KT 03/M05 A3021 RMK A01 T00321053  RH  054%=      5-min Rain = 0
KPD2 171604Z 32001KT 03/M05 A3021 RMK A01 T00341053  RH  053%=      5-min Rain = 0
KPD2 171605Z 33001KT 03/M05 A3021 RMK A01 T00341052  RH  053%=      5-min Rain = 0
KPD2 171606Z 32001KT 03/M05 A3021 RMK A01 T00341052  RH  053%=      5-min Rain = 0
KPD2 171607Z 01001KT 03/M05 A3021 RMK A01 T00341053  RH  053%=      5-min Rain = 0
KPD2 171608Z 02001KT 04/M05 A3021 RMK A01 T00351051  RH  053%=      5-min Rain = 0
KPD2 171609Z 02001KT 04/M05 A3021 RMK A01 T00371049  RH  053%=      5-min Rain = 0
KPD2 171610Z 03001KT 04/M05 A3021 RMK A01 T00391048  RH  053%=      5-min Rain = 0
KPD2 171611Z 04002KT 04/M05 A3021 RMK A01 T00401049  RH  052%=      5-min Rain = 0
KPD2 171612Z 04001KT 04/M05 A3021 RMK A01 T00411048  RH  052%=      5-min Rain = 0
KPD2 171613Z 04000KT 04/M05 A3021 RMK A01 T00421048  RH  052%=      5-min Rain = 0
KPD2 171614Z 04000KT 04/M05 A3021 RMK A01 T00431047  RH  052%=      5-min Rain = 0
KPD2 171615Z 35000KT 04/M05 A3021 RMK A01 T00441047  RH  052%=      5-min Rain = 0
KPD2 171616Z 24000KT 05/M05 A3021 RMK A01 T00451047  RH  051%=      5-min Rain = 0
KPD2 171617Z 27001KT 05/M05 A3021 RMK A01 T00451048  RH  051%=      5-min Rain = 0
KPD2 171618Z 27000KT 05/M05 A3021 RMK A01 T00451048  RH  051%=      5-min Rain = 0
KPD2 171619Z 29001KT 05/M05 A3021 RMK A01 T00451047  RH  051%=      5-min Rain = 0
KPD2 171620Z 29002KT 05/M05 A3021 RMK A01 T00451048  RH  051%=      5-min Rain = 0
KPD2 171621Z 27002KT 05/M05 A3021 RMK A01 T00451048  RH  051%=      5-min Rain = 0
KPD2 171622Z 29001KT 05/M05 A3021 RMK A01 T00461047  RH  051%=      5-min Rain = 0
KPD2 171623Z 33002KT 05/M05 A3021 RMK A01 T00461046  RH  051%=      5-min Rain = 0
KPD2 171624Z 34002KT 05/M05 A3021 RMK A01 T00471046  RH  051%=      5-min Rain = 0
KPD2 171625Z 31002KT 05/M05 A3021 RMK A01 T00481046  RH  051%=      5-min Rain = 0
KPD2 171626Z 30002KT 05/M05 A3021 RMK A01 T00481047  RH  050%=      5-min Rain = 0
KPD2 171627Z 35001KT 05/M05 A3021 RMK A01 T00481047  RH  050%=      5-min Rain = 0
KPD2 171628Z 35001KT 05/M04 A3021 RMK A01 T00511043  RH  051%=      5-min Rain = 0
KPD2 171629Z 33001KT 05/M04 A3021 RMK A01 T00531043  RH  050%=      5-min Rain = 0
KPD2 171630Z 30002KT 05/M05 A3021 RMK A01 T00541045  RH  049%=      5-min Rain = 0
KPD2 171631Z 29001KT 05/M05 A3021 RMK A01 T00541047  RH  048%=      5-min Rain = 0
KPD2 171632Z 31002KT 06/M05 A3021 RMK A01 T00551047  RH  048%=      5-min Rain = 0
KPD2 171633Z 31003KT 06/M05 A3021 RMK A01 T00561047  RH  048%=      5-min Rain = 0
KPD2 171634Z 33003KT 06/M05 A3022 RMK A01 T00561047  RH  048%=      5-min Rain = 0
KPD2 171635Z 32002KT 06/M05 A3022 RMK A01 T00571045  RH  048%=      5-min Rain = 0
KPD2 171636Z 30001KT 06/M05 A3022 RMK A01 T00581047  RH  047%=      5-min Rain = 0
KPD2 171637Z 32001KT 06/M05 A3022 RMK A01 T00581048  RH  047%=      5-min Rain = 0
KPD2 171638Z 23002KT 06/M05 A3022 RMK A01 T00591046  RH  047%=      5-min Rain = 0
KPD2 171639Z 25001KT 06/M05 A3022 RMK A01 T00611046  RH  046%=      5-min Rain = 0
KPD2 171640Z 25002KT 06/M05 A3022 RMK A01 T00621045  RH  046%=      5-min Rain = 0
KPD2 171641Z 24001KT 06/M05 A3022 RMK A01 T00641045  RH  046%=      5-min Rain = 0
KPD2 171642Z 29001KT 07/M04 A3022 RMK A01 T00651042  RH  046%=      5-min Rain = 0
KPD2 171643Z 26003KT 07/M04 A3022 RMK A01 T00671043  RH  045%=      5-min Rain = 0
KPD2 171644Z 26003KT 07/M05 A3022 RMK A01 T00671045  RH  045%=      5-min Rain = 0
KPD2 171645Z 28005KT 07/M04 A3022 RMK A01 T00681044  RH  045%=      5-min Rain = 0
KPD2 171646Z 27004KT 07/M05 A3021 RMK A01 T00681046  RH  044%=      5-min Rain = 0
KPD2 171647Z 04004KT 07/M05 A3022 RMK A01 T00691049  RH  043%=      5-min Rain = 0
KPD2 171648Z 32002KT 07/M05 A3022 RMK A01 T00701049  RH  042%=      5-min Rain = 0
KPD2 171649Z 27005KT 07/M05 A3022 RMK A01 T00721049  RH  042%=      5-min Rain = 0
KPD2 171650Z 30004KT 07/M05 A3022 RMK A01 T00711046  RH  043%=      5-min Rain = 0
KPD2 171651Z 32004KT 07/M05 A3022 RMK A01 T00701047  RH  043%=      5-min Rain = 0
KPD2 171652Z 33003KT 07/M05 A3022 RMK A01 T00701047  RH  043%=      5-min Rain = 0
KPD2 171653Z 04003KT 07/M05 A3022 RMK A01 T00721046  RH  043%=      5-min Rain = 0
KPD2 171654Z 36003KT 07/M05 A3022 RMK A01 T00741052  RH  041%=      5-min Rain = 0
KPD2 171655Z 02006KT 08/M05 A3022 RMK A01 T00761050  RH  040%=      5-min Rain = 0
KPD2 171656Z 01005KT 08/M05 A3021 RMK A01 T00791052  RH  039%=      5-min Rain = 0
KPD2 171657Z 00003KT 08/M06 A3021 RMK A01 T00801055  RH  038%=      5-min Rain = 0
KPD2 171658Z 00002KT 08/M06 A3021 RMK A01 T00801056  RH  038%=      5-min Rain = 0
KPD2 171659Z 35002KT 08/M06 A3021 RMK A01 T00801055  RH  038%=      5-min Rain = 0
KPD2 171700Z 32003KT 08/M05 A3021 RMK A01 T00821051  RH  039%=      5-min Rain = 0
KPD2 171701Z 33009KT 08/M05 A3021 RMK A01 T00841052  RH  038%=      5-min Rain = 0
KPD2 171702Z 33007KT 08/M06 A3022 RMK A01 T00841056  RH  036%=      5-min Rain = 0
KPD2 171703Z 02005KT 08/M06 A3022 RMK A01 T00821060  RH  036%=      5-min Rain = 0
KPD2 171704Z 03007KT 08/M06 A3022 RMK A01 T00821061  RH  036%=      5-min Rain = 0
KPD2 171705Z 02005KT 08/M06 A3022 RMK A01 T00821061  RH  036%=      5-min Rain = 0
KPD2 171706Z 32004KT 08/M06 A3022 RMK A01 T00821060  RH  036%=      5-min Rain = 0
KPD2 171707Z 34005KT 08/M06 A3022 RMK A01 T00831059  RH  036%=      5-min Rain = 0
KPD2 171708Z 35005KT 08/M06 A3022 RMK A01 T00841060  RH  036%=      5-min Rain = 0
KPD2 171709Z 33006KT 09/M06 A3022 RMK A01 T00851060  RH  035%=      5-min Rain = 0
KPD2 171710Z 32005KT 09/M06 A3022 RMK A01 T00851062  RH  035%=      5-min Rain = 0
KPD2 171711Z 34005KT 09/M06 A3021 RMK A01 T00861061  RH  035%=      5-min Rain = 0
KPD2 171712Z 01003KT 09/M06 A3021 RMK A01 T00861063  RH  034%=      5-min Rain = 0
KPD2 171713Z 00002KT 09/M07 A3021 RMK A01 T00861066  RH  033%=      5-min Rain = 0
KPD2 171714Z 01006KT 09/M06 A3021 RMK A01 T00871063  RH  034%=      5-min Rain = 0
KPD2 171715Z 02006KT 09/M06 A3021 RMK A01 T00901061  RH  034%=      5-min Rain = 0
KPD2 171716Z 02004KT 09/M06 A3021 RMK A01 T00911064  RH  033%=      5-min Rain = 0
KPD2 171717Z 05005KT 09/M07 A3021 RMK A01 T00911068  RH  032%=      5-min Rain = 0
KPD2 171718Z 02002KT 09/M07 A3021 RMK A01 T00891068  RH  032%=      5-min Rain = 0
KPD2 171719Z 34005KT 09/M06 A3021 RMK A01 T00891064  RH  033%=      5-min Rain = 0
KPD2 171720Z 34007KT 09/M07 A302 RMK A01 T00901065  RH  033%=      5-min Rain = 0
KPD2 171721Z 33007KT 09/M07 A302 RMK A01 T00901065  RH  033%=      5-min Rain = 0
KPD2 171722Z 33007KT 09/M07 A302 RMK A01 T00911065  RH  033%=      5-min Rain = 0
KPD2 171723Z 32005KT 09/M07 A302 RMK A01 T00921066  RH  032%=      5-min Rain = 0
KPD2 171724Z 32003KT 09/M07 A302 RMK A01 T00891069  RH  032%=      5-min Rain = 0
KPD2 171725Z 33005KT 09/M07 A302 RMK A01 T00881067  RH  033%=      5-min Rain = 0
KPD2 171726Z 34006KT 09/M07 A302 RMK A01 T00881068  RH  033%=      5-min Rain = 0
KPD2 171727Z 01005KT 09/M07 A302 RMK A01 T00891066  RH  033%=      5-min Rain = 0
KPD2 171728Z 03003KT 09/M07 A302 RMK A01 T00901066  RH  032%=      5-min Rain = 0
KPD2 171729Z 35003KT 09/M07 A302 RMK A01 T00901068  RH  032%=      5-min Rain = 0
KPD2 171730Z 35001KT 09/M07 A302 RMK A01 T00911066  RH  032%=      5-min Rain = 0
KPD2 171731Z 34007KT 09/M07 A302 RMK A01 T00921067  RH  032%=      5-min Rain = 0
KPD2 171732Z 34007KT 09/M07 A302 RMK A01 T00921070  RH  031%=      5-min Rain = 0
KPD2 171733Z 35007KT 09/M07 A302 RMK A01 T00911072  RH  031%=      5-min Rain = 0
KPD2 171734Z 36007KT 09/M07 A3019 RMK A01 T00911071  RH  031%=      5-min Rain = 0
KPD2 171735Z 00008KT 09/M07 A3019 RMK A01 T00921069  RH  031%=      5-min Rain = 0
KPD2 171736Z 35005KT 09/M07 A3019 RMK A01 T00941069  RH  031%=      5-min Rain = 0
KPD2 171737Z 34005KT 10/M07 A3019 RMK A01 T00961066  RH  031%=      5-min Rain = 0
KPD2 171738Z 00005KT 10/M07 A3019 RMK A01 T00951072  RH  030%=      5-min Rain = 0
KPD2 171739Z 36004KT 09/M07 A3019 RMK A01 T00941070  RH  031%=      5-min Rain = 0
KPD2 171740Z 36002KT 10/M07 A3019 RMK A01 T00951068  RH  031%=      5-min Rain = 0
KPD2 171741Z 35001KT 10/M07 A3019 RMK A01 T00971066  RH  031%=      5-min Rain = 0
KPD2 171742Z 33003KT 10/M07 A3019 RMK A01 T00971068  RH  031%=      5-min Rain = 0
KPD2 171743Z 35003KT 10/M07 A3018 RMK A01 T00971069  RH  030%=      5-min Rain = 0
KPD2 171744Z 03004KT 10/M07 A3018 RMK A01 T00981068  RH  031%=      5-min Rain = 0
KPD2 171745Z 00004KT 10/M07 A3018 RMK A01 T00981067  RH  030%=      5-min Rain = 0
KPD2 171746Z 02004KT 10/M07 A3018 RMK A01 T00981065  RH  031%=      5-min Rain = 0
KPD2 171747Z 03005KT 10/M07 A3018 RMK A01 T01001068  RH  030%=      5-min Rain = 0
KPD2 171748Z 04003KT 10/M07 A3018 RMK A01 T00991070  RH  030%=      5-min Rain = 0
KPD2 171749Z 02008KT 10/M07 A3018 RMK A01 T00981069  RH  030%=      5-min Rain = 0
KPD2 171750Z 01007KT 10/M07 A3018 RMK A01 T00981069  RH  030%=      5-min Rain = 0
KPD2 171751Z 03003KT 10/M07 A3018 RMK A01 T00991071  RH  030%=      5-min Rain = 0
KPD2 171752Z 01003KT 10/M07 A3018 RMK A01 T00981070  RH  030%=      5-min Rain = 0
KPD2 171753Z 04002KT 10/M07 A3017 RMK A01 T01001072  RH  029%=      5-min Rain = 0
KPD2 171754Z 33005KT 10/M07 A3017 RMK A01 T00991073  RH  029%=      5-min Rain = 0
KPD2 171755Z 32005KT 10/M07 A3017 RMK A01 T00991074  RH  029%=      5-min Rain = 0
KPD2 171756Z 34007KT 10/M07 A3017 RMK A01 T00981074  RH  029%=      5-min Rain = 0
KPD2 171757Z 35008KT 10/M07 A3017 RMK A01 T00991070  RH  030%=      5-min Rain = 0
KPD2 171758Z 36006KT 10/M07 A3017 RMK A01 T01001071  RH  029%=      5-min Rain = 0
KPD2 171759Z 00004KT 10/M07 A3017 RMK A01 T01001070  RH  029%=      5-min Rain = 0
KPD2 171800Z 04005KT 10/M07 A3017 RMK A01 T01001072  RH  029%=      5-min Rain = 0
KPD2 171801Z 05003KT 10/M08 A3017 RMK A01 T00991075  RH  029%=      5-min Rain = 0
KPD2 171802Z 01002KT 10/M08 A3017 RMK A01 T00981075  RH  029%=      5-min Rain = 0
KPD2 171803Z 35006KT 10/M07 A3017 RMK A01 T00991072  RH  029%=      5-min Rain = 0
KPD2 171804Z 02007KT 10/M08 A3017 RMK A01 T01001075  RH  028%=      5-min Rain = 0
KPD2 171805Z 02006KT 10/M07 A3017 RMK A01 T01011073  RH  029%=      5-min Rain = 0
KPD2 171806Z 03006KT 10/M08 A3017 RMK A01 T01021075  RH  028%=      5-min Rain = 0
KPD2 171807Z 01003G8KT 10/M08 A3017 RMK A01 T01011078  RH  028%=      5-min Rain = 0
KPD2 171808Z 04005KT 10/M07 A3017 RMK A01 T01011074  RH  028%=      5-min Rain = 0
KPD2 171809Z 05004KT 10/M07 A3016 RMK A01 T01021074  RH  028%=      5-min Rain = 0
KPD2 171810Z 03003KT 10/M08 A3016 RMK A01 T01001075  RH  028%=      5-min Rain = 0
KPD2 171811Z 01001KT 10/M08 A3016 RMK A01 T00981079  RH  028%=      5-min Rain = 0
KPD2 171812Z 35002KT 10/M08 A3016 RMK A01 T00981077  RH  028%=      5-min Rain = 0
KPD2 171813Z 34003G11KT 10/M07 A3016 RMK A01 T01011071  RH  029%=      5-min Rain = 0
KPD2 171814Z 33009KT 10/M07 A3016 RMK A01 T01041070  RH  029%=      5-min Rain = 0
KPD2 171815Z 00004KT 11/M07 A3016 RMK A01 T01061071  RH  028%=      5-min Rain = 0
KPD2 171816Z 32004KT 11/M07 A3016 RMK A01 T01061071  RH  028%=      5-min Rain = 0
KPD2 171817Z 01003KT 11/M07 A3016 RMK A01 T01051074  RH  028%=      5-min Rain = 0
KPD2 171818Z 04002KT 11/M07 A3016 RMK A01 T01061072  RH  028%=      5-min Rain = 0
KPD2 171819Z 03001KT 11/M07 A3016 RMK A01 T01071074  RH  027%=      5-min Rain = 0
KPD2 171820Z 33006KT 11/M07 A3016 RMK A01 T01071073  RH  028%=      5-min Rain = 0
KPD2 171821Z 34006KT 11/M07 A3016 RMK A01 T01071074  RH  027%=      5-min Rain = 0
KPD2 171822Z 34003KT 11/M07 A3016 RMK A01 T01051074  RH  028%=      5-min Rain = 0
KPD2 171823Z 29002KT 11/M07 A3015 RMK A01 T01061070  RH  028%=      5-min Rain = 0
KPD2 171824Z 31004KT 11/M07 A3015 RMK A01 T01071071  RH  028%=      5-min Rain = 0
KPD2 171825Z 32006KT 11/M07 A3015 RMK A01 T01071072  RH  028%=      5-min Rain = 0
KPD2 171826Z 34007KT 10/M07 A3015 RMK A01 T01041073  RH  028%=      5-min Rain = 0
KPD2 171827Z 01006KT 10/M07 A3015 RMK A01 T01041073  RH  028%=      5-min Rain = 0
KPD2 171828Z 01005KT 11/M07 A3015 RMK A01 T01051071  RH  028%=      5-min Rain = 0
KPD2 171829Z 01006KT 11/M07 A3015 RMK A01 T01061072  RH  028%=      5-min Rain = 0
KPD2 171830Z 04004KT 11/M07 A3015 RMK A01 T01081071  RH  028%=      5-min Rain = 0
KPD2 171831Z 03006KT 11/M07 A3015 RMK A01 T01081072  RH  027%=      5-min Rain = 0
KPD2 171832Z 04003KT 11/M07 A3015 RMK A01 T01071072  RH  028%=      5-min Rain = 0
KPD2 171833Z 01001KT 11/M07 A3015 RMK A01 T01081070  RH  028%=      5-min Rain = 0
KPD2 171834Z 35007KT 11/M07 A3015 RMK A01 T01081074  RH  027%=      5-min Rain = 0
KPD2 171835Z 35006KT 11/M08 A3015 RMK A01 T01071076  RH  027%=      5-min Rain = 0
KPD2 171836Z 01007KT 11/M07 A3015 RMK A01 T01071072  RH  028%=      5-min Rain = 0
KPD2 171837Z 04004KT 11/M08 A3015 RMK A01 T01091075  RH  027%=      5-min Rain = 0
KPD2 171838Z 08003KT 11/M08 A3014 RMK A01 T01071076  RH  027%=      5-min Rain = 0
KPD2 171839Z 11003KT 11/M08 A3014 RMK A01 T01071076  RH  027%=      5-min Rain = 0
KPD2 171840Z 09003KT 11/M08 A3014 RMK A01 T01071077  RH  027%=      5-min Rain = 0
KPD2 171841Z 03003KT 11/M08 A3014 RMK A01 T01051078  RH  027%=      5-min Rain = 0
KPD2 171842Z 32003KT 11/M08 A3014 RMK A01 T01051076  RH  027%=      5-min Rain = 0
KPD2 171843Z 33003KT 11/M08 A3014 RMK A01 T01051077  RH  027%=      5-min Rain = 0
KPD2 171844Z 33005KT 11/M07 A3014 RMK A01 T01071073  RH  027%=      5-min Rain = 0
KPD2 171845Z 34004KT 11/M07 A3014 RMK A01 T01101073  RH  027%=      5-min Rain = 0
KPD2 171846Z 35003KT 11/M08 A3014 RMK A01 T01101076  RH  026%=      5-min Rain = 0
KPD2 171847Z 00008KT 11/M08 A3014 RMK A01 T01101076  RH  026%=      5-min Rain = 0
KPD2 171848Z 02008KT 11/M07 A3014 RMK A01 T01111074  RH  027%=      5-min Rain = 0
KPD2 171849Z 03007KT 11/M08 A3013 RMK A01 T01121076  RH  026%=      5-min Rain = 0
KPD2 171850Z 03005KT 11/M08 A3013 RMK A01 T01101077  RH  026%=      5-min Rain = 0
KPD2 171851Z 04002KT 11/M08 A3013 RMK A01 T01081076  RH  027%=      5-min Rain = 0
KPD2 171852Z 32002KT 11/M08 A3013 RMK A01 T01091077  RH  026%=      5-min Rain = 0
KPD2 171853Z 32005KT 11/M08 A3013 RMK A01 T01081077  RH  027%=      5-min Rain = 0
KPD2 171854Z 36006KT 11/M08 A3013 RMK A01 T01071079  RH  026%=      5-min Rain = 0
KPD2 171855Z 00005KT 11/M08 A3013 RMK A01 T01071077  RH  027%=      5-min Rain = 0
KPD2 171856Z 02005KT 11/M08 A3013 RMK A01 T01091077  RH  026%=      5-min Rain = 0
KPD2 171857Z 06004KT 11/M08 A3013 RMK A01 T01101077  RH  026%=      5-min Rain = 0
KPD2 171858Z 04003KT 11/M08 A3013 RMK A01 T01101077  RH  026%=      5-min Rain = 0
KPD2 171859Z 03004KT 11/M08 A3013 RMK A01 T01111076  RH  026%=      5-min Rain = 0
KPD2 171900Z 34006KT 11/M07 A3013 RMK A01 T01131072  RH  027%=      5-min Rain = 0
KPD2 171901Z 35007KT 12/M07 A3013 RMK A01 T01171070  RH  026%=      5-min Rain = 0
KPD2 171902Z 35007KT 12/M07 A3013 RMK A01 T01191069  RH  026%=      5-min Rain = 0
KPD2 171903Z 34004KT 12/M07 A3013 RMK A01 T01211070  RH  026%=      5-min Rain = 0
KPD2 171904Z 33002KT 12/M08 A3013 RMK A01 T01191076  RH  025%=      5-min Rain = 0
KPD2 171905Z 01002KT 12/M08 A3013 RMK A01 T01161078  RH  025%=      5-min Rain = 0
KPD2 171906Z 00001KT 11/M08 A3013 RMK A01 T01141078  RH  025%=      5-min Rain = 0
KPD2 171907Z 12001KT 11/M08 A3013 RMK A01 T01101083  RH  025%=      5-min Rain = 0
KPD2 171908Z 36003KT 11/M08 A3013 RMK A01 T01101077  RH  026%=      5-min Rain = 0
KPD2 171909Z 33006KT 11/M08 A3013 RMK A01 T01121076  RH  026%=      5-min Rain = 0
KPD2 171910Z 35005KT 11/M08 A3013 RMK A01 T01131076  RH  026%=      5-min Rain = 0
KPD2 171911Z 34007G12KT 11/M08 A3013 RMK A01 T01121076  RH  026%=      5-min Rain = 0
KPD2 171912Z 34010KT 11/M07 A3013 RMK A01 T01121074  RH  026%=      5-min Rain = 0
KPD2 171913Z 36009KT 11/M08 A3013 RMK A01 T01141075  RH  026%=      5-min Rain = 0
KPD2 171914Z 01005KT 11/M08 A3013 RMK A01 T01131076  RH  026%=      5-min Rain = 0
KPD2 171915Z 34006KT 11/M07 A3013 RMK A01 T01141074  RH  026%=      5-min Rain = 0
KPD2 171916Z 31008G14KT 12/M07 A3013 RMK A01 T01161073  RH  026%=      5-min Rain = 0
KPD2 171917Z 30008KT 12/M08 A3013 RMK A01 T01151076  RH  025%=      5-min Rain = 0
KPD2 171918Z 32006KT 11/M08 A3013 RMK A01 T01111079  RH  026%=      5-min Rain = 0
KPD2 171919Z 32003KT 11/M08 A3013 RMK A01 T01101077  RH  026%=      5-min Rain = 0
KPD2 171920Z 30005KT 11/M07 A3013 RMK A01 T01121073  RH  027%=      5-min Rain = 0
KPD2 171921Z 31004KT 11/M08 A3013 RMK A01 T01141077  RH  026%=      5-min Rain = 0
KPD2 171922Z 29002KT 11/M08 A3013 RMK A01 T01131077  RH  026%=      5-min Rain = 0
KPD2 171923Z 32005KT 12/M07 A3013 RMK A01 T01151073  RH  026%=      5-min Rain = 0
KPD2 171924Z 34005KT 12/M07 A3013 RMK A01 T01181072  RH  026%=      5-min Rain = 0
KPD2 171925Z 36005KT 12/M07 A3012 RMK A01 T01191072  RH  026%=      5-min Rain = 0
KPD2 171926Z 01005KT 12/M07 A3012 RMK A01 T01211071  RH  025%=      5-min Rain = 0
KPD2 171927Z 02003KT 12/M07 A3012 RMK A01 T01221073  RH  025%=      5-min Rain = 0
KPD2 171928Z 00005KT 12/M07 A3012 RMK A01 T01231072  RH  025%=      5-min Rain = 0
KPD2 171929Z 30003KT 12/M07 A3012 RMK A01 T01231074  RH  025%=      5-min Rain = 0
KPD2 171930Z 31006KT 12/M07 A3012 RMK A01 T01231074  RH  025%=      5-min Rain = 0
KPD2 171931Z 30007KT 12/M08 A3012 RMK A01 T01191079  RH  024%=      5-min Rain = 0
KPD2 171932Z 31008KT 12/M08 A3012 RMK A01 T01161079  RH  025%=      5-min Rain = 0
KPD2 171933Z 36007KT 11/M08 A3012 RMK A01 T01141078  RH  025%=      5-min Rain = 0
KPD2 171934Z 35005KT 11/M08 A3012 RMK A01 T01141077  RH  025%=      5-min Rain = 0
KPD2 171935Z 30005KT 12/M08 A3012 RMK A01 T01161075  RH  026%=      5-min Rain = 0
KPD2 171936Z 31006KT 12/M08 A3012 RMK A01 T01161077  RH  025%=      5-min Rain = 0
KPD2 171937Z 31005KT 12/M08 A3012 RMK A01 T01151078  RH  025%=      5-min Rain = 0
KPD2 171938Z 33004KT 11/M08 A3012 RMK A01 T01141077  RH  026%=      5-min Rain = 0
KPD2 171939Z 31003KT 12/M07 A3012 RMK A01 T01161073  RH  026%=      5-min Rain = 0
KPD2 171940Z 34009KT 12/M07 A3012 RMK A01 T01181074  RH  025%=      5-min Rain = 0
KPD2 171941Z 35007KT 12/M08 A3012 RMK A01 T01181075  RH  025%=      5-min Rain = 0
KPD2 171942Z 36006KT 12/M08 A3012 RMK A01 T01181076  RH  025%=      5-min Rain = 0
KPD2 171943Z 00003KT 12/M07 A3012 RMK A01 T01191074  RH  025%=      5-min Rain = 0
KPD2 171944Z 04002KT 12/M08 A3012 RMK A01 T01201077  RH  024%=      5-min Rain = 0
KPD2 171945Z 04004KT 12/M08 A3012 RMK A01 T01201076  RH  025%=      5-min Rain = 0
KPD2 171946Z 04002KT 12/M08 A3011 RMK A01 T01181078  RH  025%=      5-min Rain = 0
KPD2 171947Z 15002KT 12/M08 A3011 RMK A01 T01151080  RH  025%=      5-min Rain = 0
KPD2 171948Z 15002KT 11/M08 A3011 RMK A01 T01131080  RH  025%=      5-min Rain = 0
KPD2 171949Z 33003KT 11/M08 A3011 RMK A01 T01131077  RH  026%=      5-min Rain = 0
KPD2 171950Z 31004KT 12/M08 A3011 RMK A01 T01151077  RH  025%=      5-min Rain = 0
KPD2 171951Z 01008KT 12/M08 A3011 RMK A01 T01151078  RH  025%=      5-min Rain = 0
KPD2 171952Z 02005G11KT 12/M08 A3011 RMK A01 T01171076  RH  025%=      5-min Rain = 0
KPD2 171953Z 33006KT 12/M08 A3011 RMK A01 T01171075  RH  025%=      5-min Rain = 0
KPD2 171954Z 34005KT 12/M07 A3011 RMK A01 T01181074  RH  025%=      5-min Rain = 0
KPD2 171955Z 33007KT 12/M08 A3011 RMK A01 T01201075  RH  025%=      5-min Rain = 0
KPD2 171956Z 32005KT 12/M08 A3011 RMK A01 T01161081  RH  024%=      5-min Rain = 0
KPD2 171957Z 33006KT 11/M08 A3011 RMK A01 T01131082  RH  025%=      5-min Rain = 0
KPD2 171958Z 33003KT 11/M08 A3011 RMK A01 T01111081  RH  025%=      5-min Rain = 0
KPD2 171959Z 34000KT 11/M08 A3011 RMK A01 T01101081  RH  025%=      5-min Rain = 0
KPD2 172000Z 35001KT 11/M08 A301 RMK A01 T01111081  RH  025%=      5-min Rain = 0
KPD2 172001Z 33002KT 11/M08 A301 RMK A01 T01131079  RH  025%=      5-min Rain = 0
KPD2 172002Z 03002KT 12/M08 A301 RMK A01 T01161075  RH  026%=      5-min Rain = 0
KPD2 172003Z 35001KT 12/M08 A301 RMK A01 T01181075  RH  025%=      5-min Rain = 0
KPD2 172004Z 32006KT 12/M08 A301 RMK A01 T01191076  RH  025%=      5-min Rain = 0
KPD2 172005Z 33006KT 12/M08 A301 RMK A01 T01191077  RH  025%=      5-min Rain = 0
KPD2 172006Z 34005KT 12/M08 A301 RMK A01 T01171077  RH  025%=      5-min Rain = 0
KPD2 172007Z 32004KT 12/M08 A301 RMK A01 T01171077  RH  025%=      5-min Rain = 0
KPD2 172008Z 32002KT 12/M08 A301 RMK A01 T01151080  RH  025%=      5-min Rain = 0
KPD2 172009Z 28003KT 11/M08 A301 RMK A01 T01131079  RH  025%=      5-min Rain = 0
KPD2 172010Z 26004KT 11/M08 A301 RMK A01 T01141077  RH  025%=      5-min Rain = 0
KPD2 172011Z 25005KT 12/M08 A301 RMK A01 T01151078  RH  025%=      5-min Rain = 0
KPD2 172012Z 25005KT 12/M08 A301 RMK A01 T01151077  RH  025%=      5-min Rain = 0
KPD2 172013Z 23003KT 12/M08 A301 RMK A01 T01161075  RH  025%=      5-min Rain = 0
KPD2 172014Z 24004KT 12/M07 A301 RMK A01 T01191073  RH  025%=      5-min Rain = 0
KPD2 172015Z 25003KT 12/M07 A301 RMK A01 T01211074  RH  025%=      5-min Rain = 0
KPD2 172016Z 24005KT 12/M07 A301 RMK A01 T01211074  RH  025%=      5-min Rain = 0
KPD2 172017Z 25005KT 12/M08 A301 RMK A01 T01221076  RH  024%=      5-min Rain = 0
KPD2 172018Z 22004KT 12/M08 A301 RMK A01 T01211076  RH  024%=      5-min Rain = 0
KPD2 172019Z 23005KT 12/M08 A301 RMK A01 T01201077  RH  024%=      5-min Rain = 0
KPD2 172020Z 24005G10KT 12/M08 A301 RMK A01 T01181079  RH  024%=      5-min Rain = 0
KPD2 172021Z 26008KT 12/M08 A301 RMK A01 T01171077  RH  025%=      5-min Rain = 0
KPD2 172022Z 29006KT 12/M08 A301 RMK A01 T01181077  RH  025%=      5-min Rain = 0
KPD2 172023Z 26005KT 12/M08 A301 RMK A01 T01171078  RH  025%=      5-min Rain = 0
KPD2 172024Z 25003KT 12/M08 A301 RMK A01 T01161079  RH  025%=      5-min Rain = 0
KPD2 172025Z 24003KT 12/M08 A301 RMK A01 T01161080  RH  025%=      5-min Rain = 0
KPD2 172026Z 22002KT 12/M08 A301 RMK A01 T01161080  RH  025%=      5-min Rain = 0
KPD2 172027Z 22002KT 12/M08 A301 RMK A01 T01161079  RH  025%=      5-min Rain = 0
KPD2 172028Z 21003KT 12/M08 A301 RMK A01 T01171077  RH  025%=      5-min Rain = 0
KPD2 172029Z 21003KT 12/M08 A301 RMK A01 T01191077  RH  025%=      5-min Rain = 0
KPD2 172030Z 21005KT 12/M08 A301 RMK A01 T01191076  RH  025%=      5-min Rain = 0
KPD2 172031Z 25005KT 12/M08 A301 RMK A01 T01201076  RH  025%=      5-min Rain = 0
KPD2 172032Z 26004KT 12/M08 A301 RMK A01 T01201076  RH  025%=      5-min Rain = 0
KPD2 172033Z 25003KT 12/M08 A301 RMK A01 T01211077  RH  024%=      5-min Rain = 0
KPD2 172034Z 23004KT 12/M08 A301 RMK A01 T01221077  RH  024%=      5-min Rain = 0
KPD2 172035Z 23004KT 12/M08 A301 RMK A01 T01221078  RH  024%=      5-min Rain = 0
KPD2 172036Z 22003KT 12/M08 A301 RMK A01 T01211077  RH  024%=      5-min Rain = 0
KPD2 172037Z 18002KT 12/M08 A301 RMK A01 T01211077  RH  024%=      5-min Rain = 0
KPD2 172038Z 24000KT 12/M08 A301 RMK A01 T01201079  RH  024%=      5-min Rain = 0
KPD2 172039Z 17001KT 12/M08 A301 RMK A01 T01191079  RH  024%=      5-min Rain = 0
KPD2 172040Z 17002KT 12/M08 A301 RMK A01 T01191078  RH  024%=      5-min Rain = 0
KPD2 172041Z 17001KT 12/M08 A301 RMK A01 T01201076  RH  025%=      5-min Rain = 0
KPD2 172042Z 18003KT 12/M08 A301 RMK A01 T01221075  RH  025%=      5-min Rain = 0
KPD2 172043Z 15002KT 12/M08 A301 RMK A01 T01231077  RH  024%=      5-min Rain = 0
KPD2 172044Z 17003KT 12/M08 A301 RMK A01 T01231075  RH  024%=      5-min Rain = 0
KPD2 172045Z 23003KT 12/M08 A301 RMK A01 T01221076  RH  024%=      5-min Rain = 0
KPD2 172046Z 24002KT 12/M08 A301 RMK A01 T01221078  RH  024%=      5-min Rain = 0
KPD2 172047Z 26003KT 12/M08 A301 RMK A01 T01201079  RH  024%=      5-min Rain = 0
KPD2 172048Z 28004KT 12/M08 A301 RMK A01 T01201075  RH  025%=      5-min Rain = 0
KPD2 172049Z 29005KT 12/M08 A301 RMK A01 T01211076  RH  024%=      5-min Rain = 0
KPD2 172050Z 28006KT 12/M08 A301 RMK A01 T01211077  RH  024%=      5-min Rain = 0
KPD2 172051Z 29006KT 12/M08 A301 RMK A01 T01201077  RH  025%=      5-min Rain = 0
KPD2 172052Z 29007KT 12/M08 A301 RMK A01 T01201076  RH  025%=      5-min Rain = 0
KPD2 172053Z 28007KT 12/M08 A301 RMK A01 T01201078  RH  024%=      5-min Rain = 0
KPD2 172054Z 29005KT 12/M08 A301 RMK A01 T01171080  RH  024%=      5-min Rain = 0
KPD2 172055Z 29004KT 12/M08 A301 RMK A01 T01161080  RH  025%=      5-min Rain = 0
KPD2 172056Z 29005KT 12/M08 A301 RMK A01 T01151080  RH  025%=      5-min Rain = 0
KPD2 172057Z 28005KT 12/M08 A301 RMK A01 T01161078  RH  025%=      5-min Rain = 0
KPD2 172058Z 30003KT 12/M08 A301 RMK A01 T01171078  RH  025%=      5-min Rain = 0
KPD2 172059Z 30003KT 12/M08 A301 RMK A01 T01171078  RH  025%=      5-min Rain = 0
KPD2 172100Z 26003KT 12/M08 A301 RMK A01 T01181079  RH  025%=      5-min Rain = 0
KPD2 172101Z 25003KT 12/M08 A301 RMK A01 T01191076  RH  025%=      5-min Rain = 0
KPD2 172102Z 21002KT 12/M08 A301 RMK A01 T01211076  RH  024%=      5-min Rain = 0
KPD2 172103Z 20003KT 12/M08 A3009 RMK A01 T01221078  RH  024%=      5-min Rain = 0
KPD2 172104Z 22003KT 12/M08 A3009 RMK A01 T01211078  RH  024%=      5-min Rain = 0
KPD2 172105Z 24006KT 12/M08 A3009 RMK A01 T01211076  RH  024%=      5-min Rain = 0
KPD2 172106Z 23005KT 12/M08 A3009 RMK A01 T01221078  RH  024%=      5-min Rain = 0
KPD2 172107Z 23004KT 12/M08 A3009 RMK A01 T01231075  RH  024%=      5-min Rain = 0
KPD2 172108Z 24006KT 13/M08 A3009 RMK A01 T01261075  RH  024%=      5-min Rain = 0
KPD2 172109Z 23005KT 13/M08 A3009 RMK A01 T01261077  RH  024%=      5-min Rain = 0
KPD2 172110Z 23005KT 13/M08 A3009 RMK A01 T01251077  RH  024%=      5-min Rain = 0
KPD2 172111Z 24004KT 12/M08 A3009 RMK A01 T01241078  RH  024%=      5-min Rain = 0
KPD2 172112Z 22004KT 12/M08 A3009 RMK A01 T01231077  RH  024%=      5-min Rain = 0
KPD2 172113Z 23004KT 13/M08 A3009 RMK A01 T01251075  RH  024%=      5-min Rain = 0
KPD2 172114Z 23005KT 13/M08 A3009 RMK A01 T01261075  RH  024%=      5-min Rain = 0
KPD2 172115Z 23003KT 13/M08 A3009 RMK A01 T01261077  RH  024%=      5-min Rain = 0
KPD2 172116Z 23004KT 13/M08 A3009 RMK A01 T01251076  RH  024%=      5-min Rain = 0
KPD2 172117Z 23003KT 13/M08 A3009 RMK A01 T01261078  RH  023%=      5-min Rain = 0
KPD2 172118Z 22003KT 13/M08 A3009 RMK A01 T01251077  RH  024%=      5-min Rain = 0
KPD2 172119Z 23002KT 13/M08 A3009 RMK A01 T01251077  RH  024%=      5-min Rain = 0
KPD2 172120Z 25003KT 13/M08 A3009 RMK A01 T01261075  RH  024%=      5-min Rain = 0
KPD2 172121Z 26003KT 13/M08 A3009 RMK A01 T01261078  RH  023%=      5-min Rain = 0
KPD2 172122Z 25002KT 12/M08 A3009 RMK A01 T01241080  RH  023%=      5-min Rain = 0
KPD2 172123Z 26002KT 12/M08 A3009 RMK A01 T01231080  RH  024%=      5-min Rain = 0
KPD2 172124Z 27002KT 12/M08 A3009 RMK A01 T01221080  RH  023%=      5-min Rain = 0
KPD2 172125Z 32001KT 12/M08 A3009 RMK A01 T01221080  RH  024%=      5-min Rain = 0
KPD2 172126Z 26002KT 12/M08 A3009 RMK A01 T01221079  RH  024%=      5-min Rain = 0
KPD2 172127Z 26004KT 12/M08 A3009 RMK A01 T01231077  RH  024%=      5-min Rain = 0
KPD2 172128Z 25004KT 12/M08 A3009 RMK A01 T01241077  RH  024%=      5-min Rain = 0
KPD2 172129Z 21003KT 12/M08 A3009 RMK A01 T01241078  RH  024%=      5-min Rain = 0
KPD2 172130Z 27004KT 13/M08 A3009 RMK A01 T01251077  RH  024%=      5-min Rain = 0
KPD2 172131Z 28003KT 13/M08 A3009 RMK A01 T01251077  RH  024%=      5-min Rain = 0
KPD2 172132Z 31001KT 12/M08 A3009 RMK A01 T01231080  RH  024%=      5-min Rain = 0
KPD2 172133Z 28001KT 12/M08 A3009 RMK A01 T01211081  RH  024%=      5-min Rain = 0
KPD2 172134Z 28004KT 12/M08 A3009 RMK A01 T01201080  RH  024%=      5-min Rain = 0
KPD2 172135Z 25004KT 12/M08 A3009 RMK A01 T01181081  RH  024%=      5-min Rain = 0
KPD2 172136Z 23002KT 12/M08 A3009 RMK A01 T01191078  RH  025%=      5-min Rain = 0
KPD2 172137Z 24001KT 12/M08 A3009 RMK A01 T01221076  RH  024%=      5-min Rain = 0
KPD2 172138Z 07001KT 12/M08 A3008 RMK A01 T01241078  RH  024%=      5-min Rain = 0
KPD2 172139Z 28003KT 12/M08 A3008 RMK A01 T01241078  RH  024%=      5-min Rain = 0
KPD2 172140Z 25004KT 12/M08 A3008 RMK A01 T01241077  RH  024%=      5-min Rain = 0
KPD2 172141Z 24005KT 13/M08 A3008 RMK A01 T01251077  RH  024%=      5-min Rain = 0
KPD2 172142Z 25003KT 12/M08 A3008 RMK A01 T01241079  RH  023%=      5-min Rain = 0
KPD2 172143Z 24003KT 12/M08 A3008 RMK A01 T01221080  RH  024%=      5-min Rain = 0
KPD2 172144Z 27003KT 12/M08 A3008 RMK A01 T01221079  RH  024%=      5-min Rain = 0
KPD2 172145Z 27003KT 12/M08 A3008 RMK A01 T01211080  RH  024%=      5-min Rain = 0
KPD2 172146Z 32004KT 12/M08 A3008 RMK A01 T01211078  RH  024%=      5-min Rain = 0
KPD2 172147Z 31002KT 12/M08 A3008 RMK A01 T01231077  RH  024%=      5-min Rain = 0
KPD2 172148Z 30002KT 12/M08 A3008 RMK A01 T01221079  RH  024%=      5-min Rain = 0
KPD2 172149Z 28002KT 12/M08 A3008 RMK A01 T01221079  RH  024%=      5-min Rain = 0
KPD2 172150Z 32004KT 12/M08 A3008 RMK A01 T01211079  RH  024%=      5-min Rain = 0
KPD2 172151Z 30006KT 12/M08 A3008 RMK A01 T01221078  RH  024%=      5-min Rain = 0
KPD2 172152Z 31005KT 12/M08 A3008 RMK A01 T01221079  RH  024%=      5-min Rain = 0
KPD2 172153Z 30005KT 12/M08 A3008 RMK A01 T01211079  RH  024%=      5-min Rain = 0
KPD2 172154Z 28006KT 12/M08 A3008 RMK A01 T01201081  RH  024%=      5-min Rain = 0
KPD2 172155Z 28006KT 12/M08 A3008 RMK A01 T01201080  RH  024%=      5-min Rain = 0
KPD2 172156Z 28003KT 12/M08 A3008 RMK A01 T01191081  RH  024%=      5-min Rain = 0
KPD2 172157Z 27005KT 12/M08 A3008 RMK A01 T01191079  RH  024%=      5-min Rain = 0
KPD2 172158Z 28005KT 12/M08 A3008 RMK A01 T01201079  RH  024%=      5-min Rain = 0
KPD2 172159Z 30002KT 12/M08 A3008 RMK A01 T01191080  RH  024%=      5-min Rain = 0
KPD2 172200Z 25002KT 12/M08 A3008 RMK A01 T01191080  RH  024%=      5-min Rain = 0
KPD2 172201Z 29002KT 12/M08 A3008 RMK A01 T01191078  RH  024%=      5-min Rain = 0
KPD2 172202Z 31004KT 12/M08 A3008 RMK A01 T01201079  RH  024%=      5-min Rain = 0
KPD2 172203Z 28002KT 12/M08 A3008 RMK A01 T01201079  RH  024%=      5-min Rain = 0
KPD2 172204Z 25001KT 12/M08 A3007 RMK A01 T01201079  RH  024%=      5-min Rain = 0
KPD2 172205Z 33002KT 12/M08 A3007 RMK A01 T01201079  RH  024%=      5-min Rain = 0
KPD2 172206Z 31002KT 12/M08 A3007 RMK A01 T01211078  RH  024%=      5-min Rain = 0
KPD2 172207Z 34004KT 12/M08 A3007 RMK A01 T01221077  RH  024%=      5-min Rain = 0
KPD2 172208Z 33004KT 12/M08 A3007 RMK A01 T01231077  RH  024%=      5-min Rain = 0
KPD2 172209Z 33005KT 12/M08 A3007 RMK A01 T01231078  RH  024%=      5-min Rain = 0
KPD2 172210Z 34005KT 12/M08 A3007 RMK A01 T01211080  RH  024%=      5-min Rain = 0
KPD2 172211Z 34005KT 12/M08 A3007 RMK A01 T01201079  RH  024%=      5-min Rain = 0
KPD2 172212Z 34004KT 12/M08 A3007 RMK A01 T01211078  RH  024%=      5-min Rain = 0
KPD2 172213Z 34003KT 12/M08 A3007 RMK A01 T01211078  RH  024%=      5-min Rain = 0
KPD2 172214Z 32005KT 12/M08 A3007 RMK A01 T01211078  RH  024%=      5-min Rain = 0
KPD2 172215Z 29004KT 12/M08 A3007 RMK A01 T01231075  RH  024%=      5-min Rain = 0
KPD2 172216Z 30003KT 12/M08 A3007 RMK A01 T01241077  RH  024%=      5-min Rain = 0
KPD2 172217Z 30004KT 12/M08 A3007 RMK A01 T01241076  RH  024%=      5-min Rain = 0
KPD2 172218Z 28004KT 12/M08 A3007 RMK A01 T01231078  RH  024%=      5-min Rain = 0
KPD2 172219Z 27004KT 12/M08 A3007 RMK A01 T01211080  RH  024%=      5-min Rain = 0
KPD2 172220Z 28004KT 12/M08 A3007 RMK A01 T01201079  RH  024%=      5-min Rain = 0
KPD2 172221Z 28003KT 12/M08 A3007 RMK A01 T01191080  RH  024%=      5-min Rain = 0
KPD2 172222Z 28003KT 12/M08 A3007 RMK A01 T01191079  RH  024%=      5-min Rain = 0
KPD2 172223Z 29002KT 12/M08 A3007 RMK A01 T01181079  RH  024%=      5-min Rain = 0
KPD2 172224Z 30002KT 12/M08 A3007 RMK A01 T01191079  RH  024%=      5-min Rain = 0
KPD2 172225Z 30003KT 12/M08 A3007 RMK A01 T01191079  RH  024%=      5-min Rain = 0
KPD2 172226Z 29003KT 12/M08 A3007 RMK A01 T01181080  RH  024%=      5-min Rain = 0
KPD2 172227Z 28003KT 12/M08 A3007 RMK A01 T01181080  RH  024%=      5-min Rain = 0
KPD2 172228Z 31004KT 12/M08 A3007 RMK A01 T01171079  RH  025%=      5-min Rain = 0
KPD2 172229Z 32002KT 12/M08 A3007 RMK A01 T01171078  RH  025%=      5-min Rain = 0
KPD2 172230Z 31002KT 12/M08 A3007 RMK A01 T01191078  RH  024%=      5-min Rain = 0
KPD2 172231Z 32002KT 12/M08 A3007 RMK A01 T01181080  RH  024%=      5-min Rain = 0
KPD2 172232Z 32001KT 12/M08 A3007 RMK A01 T01181080  RH  024%=      5-min Rain = 0
KPD2 172233Z 30002KT 12/M08 A3006 RMK A01 T01181080  RH  024%=      5-min Rain = 0
KPD2 172234Z 29003KT 12/M08 A3006 RMK A01 T01181080  RH  024%=      5-min Rain = 0
KPD2 172235Z 01002KT 12/M08 A3006 RMK A01 T01171081  RH  024%=      5-min Rain = 0
KPD2 172236Z 32002KT 12/M08 A3006 RMK A01 T01171080  RH  024%=      5-min Rain = 0
KPD2 172237Z 33002KT 12/M08 A3006 RMK A01 T01171080  RH  024%=      5-min Rain = 0
KPD2 172238Z 35002KT 12/M08 A3006 RMK A01 T01161080  RH  024%=      5-min Rain = 0
KPD2 172239Z 33001KT 12/M08 A3006 RMK A01 T01171079  RH  025%=      5-min Rain = 0
KPD2 172240Z 34001KT 12/M08 A3006 RMK A01 T01181079  RH  024%=      5-min Rain = 0
KPD2 172241Z 32001KT 12/M08 A3006 RMK A01 T01201079  RH  024%=      5-min Rain = 0
KPD2 172242Z 33002KT 12/M08 A3006 RMK A01 T01191080  RH  024%=      5-min Rain = 0
KPD2 172243Z 35002KT 12/M08 A3006 RMK A01 T01191080  RH  024%=      5-min Rain = 0
KPD2 172244Z 03000KT 12/M08 A3006 RMK A01 T01191080  RH  024%=      5-min Rain = 0
KPD2 172245Z 17000KT 12/M08 A3006 RMK A01 T01191079  RH  024%=      5-min Rain = 0
KPD2 172246Z 20002KT 12/M08 A3006 RMK A01 T01211077  RH  024%=      5-min Rain = 0
KPD2 172247Z 23003KT 12/M08 A3006 RMK A01 T01211076  RH  024%=      5-min Rain = 0
KPD2 172248Z 24001KT 12/M08 A3006 RMK A01 T01221078  RH  024%=      5-min Rain = 0
KPD2 172249Z 27000KT 12/M08 A3006 RMK A01 T01211080  RH  024%=      5-min Rain = 0
KPD2 172250Z 18000KT 12/M08 A3006 RMK A01 T01211079  RH  024%=      5-min Rain = 0
KPD2 172251Z 24002KT 12/M08 A3006 RMK A01 T01211079  RH  024%=      5-min Rain = 0
KPD2 172252Z 23002KT 12/M08 A3006 RMK A01 T01221078  RH  024%=      5-min Rain = 0
KPD2 172253Z 23002KT 12/M08 A3006 RMK A01 T01221077  RH  024%=      5-min Rain = 0
KPD2 172254Z 18003KT 12/M08 A3006 RMK A01 T01221077  RH  024%=      5-min Rain = 0
KPD2 172255Z 17003KT 12/M08 A3006 RMK A01 T01211077  RH  024%=      5-min Rain = 0
KPD2 172256Z 18004KT 12/M08 A3006 RMK A01 T01191077  RH  025%=      5-min Rain = 0
KPD2 172257Z 20003KT 12/M08 A3006 RMK A01 T01171078  RH  025%=      5-min Rain = 0
KPD2 172258Z 21003KT 12/M08 A3006 RMK A01 T01151078  RH  025%=      5-min Rain = 0
KPD2 172259Z 22002KT 11/M08 A3006 RMK A01 T01141078  RH  025%=      5-min Rain = 0
KPD2 172300Z 27002KT 11/M08 A3006 RMK A01 T01141077  RH  025%=      5-min Rain = 0
KPD2 172301Z 29002KT 11/M08 A3006 RMK A01 T01141077  RH  025%=      5-min Rain = 0
KPD2 172302Z 27002KT 11/M08 A3006 RMK A01 T01141077  RH  025%=      5-min Rain = 0
KPD2 172303Z 26002KT 11/M08 A3006 RMK A01 T01141077  RH  025%=      5-min Rain = 0
KPD2 172304Z 27001KT 11/M08 A3006 RMK A01 T01141078  RH  025%=      5-min Rain = 0
KPD2 172305Z 24000KT 11/M08 A3006 RMK A01 T01141078  RH  025%=      5-min Rain = 0
KPD2 172306Z 22002KT 12/M08 A3006 RMK A01 T01151076  RH  026%=      5-min Rain = 0
KPD2 172307Z 20002KT 12/M08 A3006 RMK A01 T01151076  RH  026%=      5-min Rain = 0
KPD2 172308Z 20001KT 11/M08 A3006 RMK A01 T01141075  RH  026%=      5-min Rain = 0
KPD2 172309Z 20001KT 11/M08 A3006 RMK A01 T01141076  RH  026%=      5-min Rain = 0
KPD2 172310Z 18000KT 11/M08 A3006 RMK A01 T01141077  RH  026%=      5-min Rain = 0
KPD2 172311Z 17000KT 11/M08 A3006 RMK A01 T01141077  RH  025%=      5-min Rain = 0
KPD2 172312Z 17000KT 11/M08 A3006 RMK A01 T01141077  RH  025%=      5-min Rain = 0
KPD2 172313Z 00000KT 11/M08 A3006 RMK A01 T01141078  RH  025%=      5-min Rain = 0
KPD2 172314Z 25001KT 12/M08 A3006 RMK A01 T01151078  RH  025%=      5-min Rain = 0
KPD2 172315Z 24002KT 12/M08 A3006 RMK A01 T01151076  RH  025%=      5-min Rain = 0
KPD2 172316Z 22001KT 12/M08 A3006 RMK A01 T01151076  RH  025%=      5-min Rain = 0
KPD2 172317Z 22001KT 12/M08 A3006 RMK A01 T01151076  RH  026%=      5-min Rain = 0
KPD2 172318Z 22001KT 11/M08 A3006 RMK A01 T01141076  RH  026%=      5-min Rain = 0
KPD2 172319Z 23000KT 11/M07 A3006 RMK A01 T01131074  RH  026%=      5-min Rain = 0
KPD2 172320Z 00000KT 11/M07 A3006 RMK A01 T01131074  RH  026%=      5-min Rain = 0
KPD2 172321Z 21000KT 11/M08 A3006 RMK A01 T01131075  RH  026%=      5-min Rain = 0
KPD2 172322Z 17001KT 11/M08 A3006 RMK A01 T01121076  RH  026%=      5-min Rain = 0
KPD2 172323Z 18001KT 11/M08 A3006 RMK A01 T01111075  RH  026%=      5-min Rain = 0
KPD2 172324Z 17001KT 11/M08 A3006 RMK A01 T01101075  RH  026%=      5-min Rain = 0
KPD2 172325Z 17001KT 11/M08 A3006 RMK A01 T01091076  RH  027%=      5-min Rain = 0
KPD2 172326Z 17001KT 11/M08 A3006 RMK A01 T01081075  RH  027%=      5-min Rain = 0
KPD2 172327Z 18002KT 11/M08 A3005 RMK A01 T01071075  RH  027%=      5-min Rain = 0
KPD2 172328Z 19002KT 11/M08 A3005 RMK A01 T01061075  RH  027%=      5-min Rain = 0
KPD2 172329Z 18002KT 10/M08 A3005 RMK A01 T01041075  RH  028%=      5-min Rain = 0
KPD2 172330Z 16002KT 10/M07 A3005 RMK A01 T01031074  RH  028%=      5-min Rain = 0
KPD2 172331Z 17002KT 10/M08 A3005 RMK A01 T01011075  RH  028%=      5-min Rain = 0
KPD2 172332Z 15002KT 10/M08 A3005 RMK A01 T01001075  RH  028%=      5-min Rain = 0
KPD2 172333Z 16002KT 10/M07 A3005 RMK A01 T00991074  RH  029%=      5-min Rain = 0
KPD2 172334Z 15001KT 10/M07 A3005 RMK A01 T00981074  RH  029%=      5-min Rain = 0
KPD2 172335Z 15001KT 10/M07 A3005 RMK A01 T00971074  RH  029%=      5-min Rain = 0
KPD2 172336Z 17001KT 10/M08 A3005 RMK A01 T00951075  RH  029%=      5-min Rain = 0
KPD2 172337Z 17001KT 09/M08 A3005 RMK A01 T00941075  RH  030%=      5-min Rain = 0
KPD2 172338Z 18000KT 09/M08 A3005 RMK A01 T00931075  RH  030%=      5-min Rain = 0
KPD2 172339Z 00000KT 09/M08 A3005 RMK A01 T00931075  RH  030%=      5-min Rain = 0
KPD2 172340Z 00000KT 09/M08 A3005 RMK A01 T00921075  RH  030%=      5-min Rain = 0
KPD2 172341Z 00000KT 09/M08 A3005 RMK A01 T00921075  RH  030%=      5-min Rain = 0
KPD2 172342Z 18000KT 09/M08 A3005 RMK A01 T00911076  RH  030%=      5-min Rain = 0
KPD2 172343Z 18000KT 09/M08 A3005 RMK A01 T00901076  RH  030%=      5-min Rain = 0
KPD2 172344Z 19000KT 09/M08 A3005 RMK A01 T00891076  RH  030%=      5-min Rain = 0
KPD2 172345Z 00000KT 09/M08 A3005 RMK A01 T00891076  RH  030%=      5-min Rain = 0
KPD2 172346Z 00000KT 09/M08 A3005 RMK A01 T00881076  RH  031%=      5-min Rain = 0
KPD2 172347Z 00000KT 09/M08 A3005 RMK A01 T00871076  RH  031%=      5-min Rain = 0
KPD2 172348Z 00000KT 09/M08 A3005 RMK A01 T00871076  RH  031%=      5-min Rain = 0
KPD2 172349Z 00000KT 09/M07 A3006 RMK A01 T00861074  RH  031%=      5-min Rain = 0
KPD2 172350Z 00000KT 09/M07 A3006 RMK A01 T00851073  RH  032%=      5-min Rain = 0
KPD2 172351Z 00000KT 08/M07 A3006 RMK A01 T00841073  RH  032%=      5-min Rain = 0
KPD2 172352Z 00000KT 08/M07 A3006 RMK A01 T00831073  RH  032%=      5-min Rain = 0
KPD2 172353Z 00000KT 08/M07 A3006 RMK A01 T00831073  RH  032%=      5-min Rain = 0
KPD2 172354Z 00000KT 08/M07 A3006 RMK A01 T00821073  RH  033%=      5-min Rain = 0
KPD2 172355Z 19000KT 08/M07 A3006 RMK A01 T00811074  RH  033%=      5-min Rain = 0
KPD2 172356Z 00000KT 08/M07 A3006 RMK A01 T00801073  RH  033%=      5-min Rain = 0
KPD2 172357Z 00000KT 08/M07 A3006 RMK A01 T00801073  RH  033%=      5-min Rain = 0
KPD2 172358Z 00000KT 08/M08 A3006 RMK A01 T00791075  RH  033%=      5-min Rain = 0
KPD2 172359Z 00000KT 08/M08 A3006 RMK A01 T00781076  RH  033%=      5-min Rain = 0
KPD2 180000Z 00000KT 08/M08 A3006 RMK A01 T00791076  RH  033%=      5-min Rain = 0
KPD2 180001Z 00000KT 08/M08 A3006 RMK A01 T00801076  RH  032%=      5-min Rain = 0
KPD2 180002Z 00000KT 08/M08 A3006 RMK A01 T00801076  RH  032%=      5-min Rain = 0
KPD2 180003Z 00000KT 08/M08 A3006 RMK A01 T00801076  RH  032%=      5-min Rain = 0
KPD2 180004Z 00000KT 08/M08 A3006 RMK A01 T00781075  RH  033%=      5-min Rain = 0
KPD2 180005Z 00000KT 08/M07 A3006 RMK A01 T00771074  RH  033%=      5-min Rain = 0
KPD2 180006Z 00000KT 08/M07 A3006 RMK A01 T00751071  RH  035%=      5-min Rain = 0
KPD2 180007Z 00000KT 07/M07 A3006 RMK A01 T00731071  RH  035%=      5-min Rain = 0
KPD2 180008Z 00000KT 07/M07 A3006 RMK A01 T00721072  RH  035%=      5-min Rain = 0
KPD2 180009Z 00000KT 07/M07 A3006 RMK A01 T00711072  RH  035%=      5-min Rain = 0
KPD2 180010Z 00000KT 07/M07 A3006 RMK A01 T00701074  RH  035%=      5-min Rain = 0
KPD2 180011Z 00000KT 07/M07 A3006 RMK A01 T00691074  RH  035%=      5-min Rain = 0
KPD2 180012Z 00000KT 07/M07 A3006 RMK A01 T00691074  RH  035%=      5-min Rain = 0
KPD2 180013Z 00000KT 07/M08 A3006 RMK A01 T00691075  RH  035%=      5-min Rain = 0
KPD2 180014Z 00000KT 07/M08 A3006 RMK A01 T00691075  RH  035%=      5-min Rain = 0
KPD2 180015Z 00000KT 07/M08 A3005 RMK A01 T00691075  RH  035%=      5-min Rain = 0
KPD2 180016Z 00000KT 07/M07 A3005 RMK A01 T00681074  RH  036%=      5-min Rain = 0
KPD2 180017Z 18000KT 07/M07 A3005 RMK A01 T00671073  RH  036%=      5-min Rain = 0
KPD2 180018Z 18000KT 07/M07 A3005 RMK A01 T00671072  RH  036%=      5-min Rain = 0
KPD2 180019Z 19000KT 07/M07 A3005 RMK A01 T00671072  RH  036%=      5-min Rain = 0
KPD2 180020Z 20001KT 07/M07 A3005 RMK A01 T00661072  RH  037%=      5-min Rain = 0
KPD2 180021Z 00000KT 07/M07 A3005 RMK A01 T00651072  RH  037%=      5-min Rain = 0
KPD2 180022Z 20000KT 07/M07 A3006 RMK A01 T00651072  RH  037%=      5-min Rain = 0
KPD2 180023Z 20001KT 07/M07 A3006 RMK A01 T00651073  RH  037%=      5-min Rain = 0
KPD2 180024Z 20000KT 06/M07 A3006 RMK A01 T00641073  RH  037%=      5-min Rain = 0
KPD2 180025Z 00000KT 06/M07 A3005 RMK A01 T00631073  RH  037%=      5-min Rain = 0
KPD2 180026Z 20000KT 06/M07 A3005 RMK A01 T00631073  RH  037%=      5-min Rain = 0
KPD2 180027Z 20001KT 06/M07 A3005 RMK A01 T00641073  RH  037%=      5-min Rain = 0
KPD2 180028Z 20000KT 06/M07 A3005 RMK A01 T00641073  RH  037%=      5-min Rain = 0
KPD2 180029Z 00000KT 06/M07 A3005 RMK A01 T00641073  RH  037%=      5-min Rain = 0
KPD2 180030Z 00000KT 06/M07 A3006 RMK A01 T00641073  RH  037%=      5-min Rain = 0
KPD2 180031Z 00000KT 06/M07 A3006 RMK A01 T00641073  RH  037%=      5-min Rain = 0
KPD2 180032Z 20000KT 06/M07 A3006 RMK A01 T00641073  RH  037%=      5-min Rain = 0
KPD2 180033Z 20001KT 06/M07 A3006 RMK A01 T00631073  RH  037%=      5-min Rain = 0
KPD2 180034Z 20001KT 06/M07 A3006 RMK A01 T00631073  RH  037%=      5-min Rain = 0
KPD2 180035Z 20000KT 06/M07 A3006 RMK A01 T00621073  RH  037%=      5-min Rain = 0
KPD2 180036Z 20000KT 06/M07 A3006 RMK A01 T00611074  RH  037%=      5-min Rain = 0
KPD2 180037Z 00000KT 06/M07 A3006 RMK A01 T00611073  RH  038%=      5-min Rain = 0
KPD2 180038Z 00000KT 06/M07 A3006 RMK A01 T00601074  RH  038%=      5-min Rain = 0
KPD2 180039Z 00000KT 06/M07 A3006 RMK A01 T00611074  RH  037%=      5-min Rain = 0
KPD2 180040Z 00000KT 06/M07 A3006 RMK A01 T00621073  RH  037%=      5-min Rain = 0
KPD2 180041Z 00000KT 06/M07 A3006 RMK A01 T00641073  RH  037%=      5-min Rain = 0
KPD2 180042Z 00000KT 07/M07 A3006 RMK A01 T00651073  RH  037%=      5-min Rain = 0
KPD2 180043Z 00000KT 07/M07 A3006 RMK A01 T00651073  RH  036%=      5-min Rain = 0
KPD2 180044Z 00000KT 07/M07 A3006 RMK A01 T00661073  RH  036%=      5-min Rain = 0
KPD2 180045Z 18001KT 07/M07 A3006 RMK A01 T00661072  RH  036%=      5-min Rain = 0
KPD2 180046Z 18000KT 07/M07 A3006 RMK A01 T00651071  RH  037%=      5-min Rain = 0
KPD2 180047Z 18000KT 07/M07 A3006 RMK A01 T00651072  RH  037%=      5-min Rain = 0
KPD2 180048Z 17001KT 07/M07 A3006 RMK A01 T00661072  RH  037%=      5-min Rain = 0
KPD2 180049Z 15001KT 07/M07 A3006 RMK A01 T00651072  RH  037%=      5-min Rain = 0
KPD2 180050Z 16001KT 07/M07 A3006 RMK A01 T00651072  RH  037%=      5-min Rain = 0
KPD2 180051Z 16002KT 07/M07 A3006 RMK A01 T00651072  RH  037%=      5-min Rain = 0
KPD2 180052Z 16001KT 07/M07 A3006 RMK A01 T00651072  RH  037%=      5-min Rain = 0
KPD2 180053Z 16001KT 07/M07 A3006 RMK A01 T00661072  RH  037%=      5-min Rain = 0
KPD2 180054Z 16001KT 07/M07 A3006 RMK A01 T00671071  RH  037%=      5-min Rain = 0
KPD2 180055Z 20000KT 07/M07 A3006 RMK A01 T00671071  RH  037%=      5-min Rain = 0
KPD2 180056Z 20000KT 07/M07 A3006 RMK A01 T00671071  RH  037%=      5-min Rain = 0
KPD2 180057Z 20001KT 07/M07 A3006 RMK A01 T00671071  RH  037%=      5-min Rain = 0
KPD2 180058Z 20001KT 07/M07 A3006 RMK A01 T00661071  RH  037%=      5-min Rain = 0
KPD2 180059Z 19001KT 07/M07 A3006 RMK A01 T00661071  RH  037%=      5-min Rain = 0
KPD2 180100Z 18001KT 07/M07 A3006 RMK A01 T00651071  RH  037%=      5-min Rain = 0
KPD2 180101Z 16001KT 07/M07 A3006 RMK A01 T00651070  RH  037%=      5-min Rain = 0
KPD2 180102Z 17001KT 07/M07 A3006 RMK A01 T00651071  RH  037%=      5-min Rain = 0
KPD2 180103Z 16001KT 07/M07 A3006 RMK A01 T00651071  RH  037%=      5-min Rain = 0
KPD2 180104Z 14000KT 07/M07 A3006 RMK A01 T00651071  RH  037%=      5-min Rain = 0
KPD2 180105Z 14000KT 07/M07 A3006 RMK A01 T00651070  RH  037%=      5-min Rain = 0
KPD2 180106Z 15001KT 06/M07 A3006 RMK A01 T00641070  RH  038%=      5-min Rain = 0
KPD2 180107Z 16001KT 06/M07 A3006 RMK A01 T00641070  RH  038%=      5-min Rain = 0
KPD2 180108Z 16000KT 06/M07 A3006 RMK A01 T00641070  RH  038%=      5-min Rain = 0
KPD2 180109Z 16001KT 06/M07 A3006 RMK A01 T00641069  RH  038%=      5-min Rain = 0
KPD2 180110Z 16001KT 06/M07 A3006 RMK A01 T00641069  RH  038%=      5-min Rain = 0
KPD2 180111Z 15001KT 06/M07 A3006 RMK A01 T00641069  RH  038%=      5-min Rain = 0
KPD2 180112Z 14001KT 06/M07 A3006 RMK A01 T00641069  RH  038%=      5-min Rain = 0
KPD2 180113Z 17001KT 06/M07 A3006 RMK A01 T00631069  RH  038%=      5-min Rain = 0
KPD2 180114Z 16001KT 06/M07 A3005 RMK A01 T00631068  RH  039%=      5-min Rain = 0
KPD2 180115Z 17001KT 06/M07 A3005 RMK A01 T00631068  RH  039%=      5-min Rain = 0
KPD2 180116Z 16001KT 06/M07 A3005 RMK A01 T00621068  RH  039%=      5-min Rain = 0
KPD2 180117Z 16001KT 06/M07 A3005 RMK A01 T00621068  RH  039%=      5-min Rain = 0
KPD2 180118Z 00000KT 06/M07 A3005 RMK A01 T00621068  RH  039%=      5-min Rain = 0
KPD2 180119Z 18001KT 06/M07 A3005 RMK A01 T00621069  RH  039%=      5-min Rain = 0
KPD2 180120Z 19001KT 06/M07 A3005 RMK A01 T00631068  RH  039%=      5-min Rain = 0
KPD2 180121Z 00000KT 06/M07 A3005 RMK A01 T00631068  RH  038%=      5-min Rain = 0
KPD2 180122Z 00000KT 06/M07 A3005 RMK A01 T00641068  RH  038%=      5-min Rain = 0
KPD2 180123Z 19000KT 06/M07 A3005 RMK A01 T00631068  RH  038%=      5-min Rain = 0
KPD2 180124Z 19001KT 06/M07 A3005 RMK A01 T00631068  RH  039%=      5-min Rain = 0
KPD2 180125Z 19000KT 06/M07 A3005 RMK A01 T00591069  RH  039%=      5-min Rain = 0
KPD2 180126Z 15001KT 06/M07 A3005 RMK A01 T00551071  RH  040%=      5-min Rain = 0
KPD2 180127Z 15001KT 05/M07 A3005 RMK A01 T00511071  RH  041%=      5-min Rain = 0
KPD2 180128Z 15000KT 05/M07 A3005 RMK A01 T00471073  RH  041%=      5-min Rain = 0
KPD2 180129Z 15001KT 04/M07 A3005 RMK A01 T00441073  RH  042%=      5-min Rain = 0
KPD2 180130Z 15002KT 04/M07 A3005 RMK A01 T00421071  RH  043%=      5-min Rain = 0
KPD2 180131Z 14001KT 04/M07 A3005 RMK A01 T00401071  RH  044%=      5-min Rain = 0
KPD2 180132Z 15000KT 04/M07 A3005 RMK A01 T00391073  RH  044%=      5-min Rain = 0
KPD2 180133Z 15001KT 04/M07 A3005 RMK A01 T00371074  RH  044%=      5-min Rain = 0
KPD2 180134Z 14001KT 04/M07 A3005 RMK A01 T00351074  RH  044%=      5-min Rain = 0
KPD2 180135Z 14001KT 03/M07 A3005 RMK A01 T00341074  RH  045%=      5-min Rain = 0
KPD2 180136Z 00000KT 03/M08 A3005 RMK A01 T00321075  RH  045%=      5-min Rain = 0
KPD2 180137Z 00000KT 03/M08 A3005 RMK A01 T00311076  RH  045%=      5-min Rain = 0
KPD2 180138Z 13000KT 03/M08 A3005 RMK A01 T00301076  RH  046%=      5-min Rain = 0
KPD2 180139Z 00000KT 03/M08 A3005 RMK A01 T00301075  RH  046%=      5-min Rain = 0
KPD2 180140Z 00000KT 03/M08 A3005 RMK A01 T00301075  RH  046%=      5-min Rain = 0
KPD2 180141Z 00000KT 03/M07 A3005 RMK A01 T00301073  RH  047%=      5-min Rain = 0
KPD2 180142Z 00000KT 03/M07 A3005 RMK A01 T00311073  RH  046%=      5-min Rain = 0
KPD2 180143Z 08000KT 03/M07 A3005 RMK A01 T00311074  RH  046%=      5-min Rain = 0
KPD2 180144Z 00000KT 03/M07 A3005 RMK A01 T00291074  RH  047%=      5-min Rain = 0
KPD2 180145Z 00000KT 03/M07 A3005 RMK A01 T00281074  RH  047%=      5-min Rain = 0
KPD2 180146Z 00000KT 03/M07 A3005 RMK A01 T00281073  RH  047%=      5-min Rain = 0
KPD2 180147Z 00000KT 03/M07 A3005 RMK A01 T00281073  RH  048%=      5-min Rain = 0
KPD2 180148Z 00000KT 03/M07 A3005 RMK A01 T00281072  RH  048%=      5-min Rain = 0
KPD2 180149Z 00000KT 03/M07 A3005 RMK A01 T00271073  RH  048%=      5-min Rain = 0
KPD2 180150Z 00000KT 03/M07 A3005 RMK A01 T00271072  RH  048%=      5-min Rain = 0
KPD2 180151Z 09000KT 03/M07 A3005 RMK A01 T00281071  RH  048%=      5-min Rain = 0
KPD2 180152Z 09000KT 03/M07 A3005 RMK A01 T00311070  RH  048%=      5-min Rain = 0
KPD2 180153Z 08000KT 03/M07 A3005 RMK A01 T00331070  RH  047%=      5-min Rain = 0
KPD2 180154Z 08000KT 03/M07 A3005 RMK A01 T00321072  RH  046%=      5-min Rain = 0
KPD2 180155Z 00000KT 03/M07 A3005 RMK A01 T00321073  RH  046%=      5-min Rain = 0
KPD2 180156Z 00000KT 03/M07 A3005 RMK A01 T00311073  RH  046%=      5-min Rain = 0
KPD2 180157Z 00000KT 03/M07 A3005 RMK A01 T00311073  RH  047%=      5-min Rain = 0
KPD2 180158Z 08001KT 03/M07 A3005 RMK A01 T00311072  RH  047%=      5-min Rain = 0
KPD2 180159Z 09000KT 03/M07 A3005 RMK A01 T00311072  RH  047%=      5-min Rain = 0
KPD2 180200Z 00000KT 03/M07 A3005 RMK A01 T00301073  RH  047%=      5-min Rain = 0
KPD2 180201Z 00000KT 03/M07 A3005 RMK A01 T00291072  RH  048%=      5-min Rain = 0
KPD2 180202Z 01000KT 03/M07 A3005 RMK A01 T00281072  RH  048%=      5-min Rain = 0
KPD2 180203Z 34002KT 03/M07 A3005 RMK A01 T00291071  RH  048%=      5-min Rain = 0
KPD2 180204Z 33002KT 03/M07 A3005 RMK A01 T00311071  RH  047%=      5-min Rain = 0
KPD2 180205Z 33000KT 03/M07 A3005 RMK A01 T00311071  RH  047%=      5-min Rain = 0
KPD2 180206Z 00000KT 03/M07 A3005 RMK A01 T00311071  RH  047%=      5-min Rain = 0
KPD2 180207Z 00000KT 03/M07 A3005 RMK A01 T00291071  RH  047%=      5-min Rain = 0
KPD2 180208Z 33000KT 03/M07 A3005 RMK A01 T00281072  RH  048%=      5-min Rain = 0
KPD2 180209Z 33001KT 03/M07 A3005 RMK A01 T00281072  RH  048%=      5-min Rain = 0
KPD2 180210Z 33000KT 03/M07 A3005 RMK A01 T00271072  RH  048%=      5-min Rain = 0
KPD2 180211Z 33000KT 03/M07 A3005 RMK A01 T00271072  RH  048%=      5-min Rain = 0
KPD2 180212Z 00000KT 03/M07 A3005 RMK A01 T00271072  RH  048%=      5-min Rain = 0
KPD2 180213Z 00000KT 03/M07 A3005 RMK A01 T00271073  RH  048%=      5-min Rain = 0
KPD2 180214Z 00000KT 03/M07 A3005 RMK A01 T00261072  RH  048%=      5-min Rain = 0
KPD2 180215Z 00000KT 03/M07 A3005 RMK A01 T00261072  RH  048%=      5-min Rain = 0
KPD2 180216Z 00000KT 03/M07 A3005 RMK A01 T00251073  RH  049%=      5-min Rain = 0
KPD2 180217Z 33000KT 03/M07 A3005 RMK A01 T00251072  RH  049%=      5-min Rain = 0
KPD2 180218Z 33002KT 03/M07 A3005 RMK A01 T00271071  RH  048%=      5-min Rain = 0
KPD2 180219Z 34002KT 03/M07 A3004 RMK A01 T00291071  RH  048%=      5-min Rain = 0
KPD2 180220Z 35002KT 03/M07 A3004 RMK A01 T00291071  RH  048%=      5-min Rain = 0
KPD2 180221Z 35000KT 03/M07 A3004 RMK A01 T00271074  RH  047%=      5-min Rain = 0
KPD2 180222Z 35000KT 02/M08 A3004 RMK A01 T00241076  RH  048%=      5-min Rain = 0
KPD2 180223Z 34002KT 02/M07 A3004 RMK A01 T00231074  RH  049%=      5-min Rain = 0
KPD2 180224Z 33001KT 02/M07 A3004 RMK A01 T00231073  RH  049%=      5-min Rain = 0
KPD2 180225Z 34001KT 02/M07 A3004 RMK A01 T00231074  RH  049%=      5-min Rain = 0
KPD2 180226Z 35002KT 02/M07 A3004 RMK A01 T00231072  RH  049%=      5-min Rain = 0
KPD2 180227Z 33003KT 03/M07 A3004 RMK A01 T00251070  RH  050%=      5-min Rain = 0
KPD2 180228Z 34003KT 03/M07 A3004 RMK A01 T00281067  RH  050%=      5-min Rain = 0
KPD2 180229Z 34003KT 03/M07 A3004 RMK A01 T00301067  RH  049%=      5-min Rain = 0
KPD2 180230Z 34002KT 03/M07 A3004 RMK A01 T00321066  RH  049%=      5-min Rain = 0
KPD2 180231Z 35002KT 03/M07 A3004 RMK A01 T00321068  RH  048%=      5-min Rain = 0
KPD2 180232Z 35002KT 03/M07 A3004 RMK A01 T00331066  RH  048%=      5-min Rain = 0
KPD2 180233Z 35002KT 04/M07 A3004 RMK A01 T00351065  RH  048%=      5-min Rain = 0
KPD2 180234Z 35002KT 04/M06 A3004 RMK A01 T00371064  RH  048%=      5-min Rain = 0
KPD2 180235Z 33001KT 04/M06 A3004 RMK A01 T00381064  RH  047%=      5-min Rain = 0
KPD2 180236Z 33001KT 04/M06 A3004 RMK A01 T00411062  RH  047%=      5-min Rain = 0
KPD2 180237Z 34000KT 04/M06 A3004 RMK A01 T00421064  RH  046%=      5-min Rain = 0
KPD2 180238Z 33001KT 04/M07 A3004 RMK A01 T00411066  RH  046%=      5-min Rain = 0
KPD2 180239Z 35002KT 04/M06 A3004 RMK A01 T00411064  RH  046%=      5-min Rain = 0
KPD2 180240Z 36002KT 04/M06 A3004 RMK A01 T00421064  RH  046%=      5-min Rain = 0
KPD2 180241Z 34001KT 04/M06 A3004 RMK A01 T00431064  RH  046%=      5-min Rain = 0
KPD2 180242Z 00000KT 05/M06 A3004 RMK A01 T00451062  RH  046%=      5-min Rain = 0
KPD2 180243Z 34001KT 05/M06 A3004 RMK A01 T00491062  RH  045%=      5-min Rain = 0
KPD2 180244Z 34001KT 05/M06 A3004 RMK A01 T00501063  RH  044%=      5-min Rain = 0
KPD2 180245Z 34001KT 05/M06 A3004 RMK A01 T00501064  RH  044%=      5-min Rain = 0
KPD2 180246Z 36001KT 05/M07 A3004 RMK A01 T00491065  RH  044%=      5-min Rain = 0
KPD2 180247Z 33001KT 05/M07 A3004 RMK A01 T00461066  RH  044%=      5-min Rain = 0
KPD2 180248Z 33003KT 04/M07 A3004 RMK A01 T00441067  RH  044%=      5-min Rain = 0
KPD2 180249Z 34003KT 04/M07 A3004 RMK A01 T00421068  RH  045%=      5-min Rain = 0
KPD2 180250Z 35003KT 04/M07 A3004 RMK A01 T00391069  RH  045%=      5-min Rain = 0
KPD2 180251Z 34003KT 04/M07 A3003 RMK A01 T00361070  RH  046%=      5-min Rain = 0
KPD2 180252Z 34003KT 03/M07 A3003 RMK A01 T00331070  RH  047%=      5-min Rain = 0
KPD2 180253Z 35002KT 03/M07 A3003 RMK A01 T00321069  RH  048%=      5-min Rain = 0
KPD2 180254Z 11000KT 03/M07 A3003 RMK A01 T00291071  RH  048%=      5-min Rain = 0
KPD2 180255Z 12001KT 03/M07 A3003 RMK A01 T00251073  RH  048%=      5-min Rain = 0
KPD2 180256Z 12000KT 02/M07 A3003 RMK A01 T00241072  RH  049%=      5-min Rain = 0
KPD2 180257Z 03001KT 02/M07 A3003 RMK A01 T00231072  RH  050%=      5-min Rain = 0
KPD2 180258Z 01004KT 02/M07 A3003 RMK A01 T00221071  RH  050%=      5-min Rain = 0
KPD2 180259Z 36004KT 02/M07 A3003 RMK A01 T00231069  RH  051%=      5-min Rain = 0
KPD2 180300Z 35004KT 03/M07 A3003 RMK A01 T00251066  RH  051%=      5-min Rain = 0
KPD2 180301Z 35005KT 03/M07 A3003 RMK A01 T00261066  RH  051%=      5-min Rain = 0
KPD2 180302Z 35005KT 03/M07 A3003 RMK A01 T00261066  RH  051%=      5-min Rain = 0
KPD2 180303Z 35004KT 03/M07 A3003 RMK A01 T00261065  RH  051%=      5-min Rain = 0
KPD2 180304Z 23003KT 03/M07 A3003 RMK A01 T00251066  RH  051%=      5-min Rain = 0
KPD2 180305Z 20000KT 02/M07 A3003 RMK A01 T00231071  RH  050%=      5-min Rain = 0
KPD2 180306Z 33000KT 02/M07 A3003 RMK A01 T00221070  RH  051%=      5-min Rain = 0
KPD2 180307Z 35002KT 02/M07 A3003 RMK A01 T00241067  RH  051%=      5-min Rain = 0
KPD2 180308Z 35002KT 03/M07 A3003 RMK A01 T00271066  RH  050%=      5-min Rain = 0
KPD2 180309Z 34000KT 03/M07 A3003 RMK A01 T00281067  RH  050%=      5-min Rain = 0
KPD2 180310Z 15001KT 03/M07 A3003 RMK A01 T00261070  RH  049%=      5-min Rain = 0
KPD2 180311Z 14002KT 02/M07 A3003 RMK A01 T00231071  RH  050%=      5-min Rain = 0
KPD2 180312Z 15000KT 02/M07 A3003 RMK A01 T00201072  RH  050%=      5-min Rain = 0
KPD2 180313Z 16001KT 02/M07 A3003 RMK A01 T00181072  RH  051%=      5-min Rain = 0
KPD2 180314Z 16001KT 02/M07 A3003 RMK A01 T00181071  RH  052%=      5-min Rain = 0
KPD2 180315Z 08000KT 02/M07 A3003 RMK A01 T00181070  RH  052%=      5-min Rain = 0
KPD2 180316Z 02002KT 02/M07 A3003 RMK A01 T00171071  RH  052%=      5-min Rain = 0
KPD2 180317Z 01003KT 02/M07 A3003 RMK A01 T00181070  RH  052%=      5-min Rain = 0
KPD2 180318Z 00004KT 02/M07 A3003 RMK A01 T00181069  RH  053%=      5-min Rain = 0
KPD2 180319Z 34003KT 02/M07 A3003 RMK A01 T00211066  RH  053%=      5-min Rain = 0
KPD2 180320Z 34001KT 03/M06 A3003 RMK A01 T00261062  RH  052%=      5-min Rain = 0
KPD2 180321Z 32000KT 03/M06 A3003 RMK A01 T00301063  RH  051%=      5-min Rain = 0
KPD2 180322Z 20001KT 03/M07 A3002 RMK A01 T00301067  RH  049%=      5-min Rain = 0
KPD2 180323Z 00000KT 03/M07 A3002 RMK A01 T00271069  RH  049%=      5-min Rain = 0
KPD2 180324Z 28001KT 03/M07 A3002 RMK A01 T00251069  RH  050%=      5-min Rain = 0
KPD2 180325Z 11001KT 03/M07 A3002 RMK A01 T00261066  RH  051%=      5-min Rain = 0
KPD2 180326Z 20001KT 03/M07 A3002 RMK A01 T00281065  RH  050%=      5-min Rain = 0
KPD2 180327Z 20001KT 03/M06 A3002 RMK A01 T00311063  RH  050%=      5-min Rain = 0
KPD2 180328Z 23000KT 03/M06 A3002 RMK A01 T00331062  RH  050%=      5-min Rain = 0
KPD2 180329Z 25000KT 03/M06 A3002 RMK A01 T00341064  RH  049%=      5-min Rain = 0
KPD2 180330Z 35002KT 03/M06 A3002 RMK A01 T00341064  RH  049%=      5-min Rain = 0
KPD2 180331Z 36001KT 03/M06 A3002 RMK A01 T00341063  RH  049%=      5-min Rain = 0
KPD2 180332Z 19001KT 04/M06 A3002 RMK A01 T00371061  RH  049%=      5-min Rain = 0
KPD2 180333Z 10000KT 04/M06 A3002 RMK A01 T00421057  RH  048%=      5-min Rain = 0
KPD2 180334Z 33003KT 05/M06 A3002 RMK A01 T00451060  RH  047%=      5-min Rain = 0
KPD2 180335Z 34001KT 04/M06 A3002 RMK A01 T00431063  RH  046%=      5-min Rain = 0
KPD2 180336Z 36004KT 04/M06 A3002 RMK A01 T00431062  RH  046%=      5-min Rain = 0
KPD2 180337Z 00004KT 04/M06 A3002 RMK A01 T00441062  RH  046%=      5-min Rain = 0
KPD2 180338Z 00002KT 04/M06 A3002 RMK A01 T00431062  RH  046%=      5-min Rain = 0
KPD2 180339Z 33002KT 04/M06 A3002 RMK A01 T00421061  RH  047%=      5-min Rain = 0
KPD2 180340Z 31004KT 04/M06 A3002 RMK A01 T00421061  RH  047%=      5-min Rain = 0
KPD2 180341Z 33003KT 04/M06 A3002 RMK A01 T00421060  RH  047%=      5-min Rain = 0
KPD2 180342Z 29001KT 04/M06 A3002 RMK A01 T00441058  RH  047%=      5-min Rain = 0
KPD2 180343Z 33001KT 04/M06 A3002 RMK A01 T00441059  RH  047%=      5-min Rain = 0
KPD2 180344Z 32001KT 04/M06 A3002 RMK A01 T00441058  RH  047%=      5-min Rain = 0
KPD2 180345Z 27001KT 05/M06 A3002 RMK A01 T00451057  RH  047%=      5-min Rain = 0
KPD2 180346Z 32002KT 05/M06 A3002 RMK A01 T00461057  RH  047%=      5-min Rain = 0
KPD2 180347Z 33001KT 05/M06 A3002 RMK A01 T00471057  RH  047%=      5-min Rain = 0
KPD2 180348Z 27000KT 05/M06 A3002 RMK A01 T00471056  RH  047%=      5-min Rain = 0
KPD2 180349Z 25001KT 05/M06 A3002 RMK A01 T00481056  RH  047%=      5-min Rain = 0
KPD2 180350Z 32002KT 05/M06 A3002 RMK A01 T00491056  RH  047%=      5-min Rain = 0
KPD2 180351Z 36002KT 05/M06 A3002 RMK A01 T00501056  RH  046%=      5-min Rain = 0
KPD2 180352Z 01003KT 05/M06 A3001 RMK A01 T00491056  RH  047%=      5-min Rain = 0
KPD2 180353Z 03002KT 05/M06 A3001 RMK A01 T00491055  RH  047%=      5-min Rain = 0
KPD2 180354Z 32001KT 05/M06 A3001 RMK A01 T00501055  RH  047%=      5-min Rain = 0
KPD2 180355Z 30001KT 05/M06 A3001 RMK A01 T00491056  RH  047%=      5-min Rain = 0
KPD2 180356Z 34001KT 05/M06 A3001 RMK A01 T00491055  RH  047%=      5-min Rain = 0
KPD2 180357Z 02002KT 05/M06 A3001 RMK A01 T00491055  RH  047%=      5-min Rain = 0
KPD2 180358Z 02002KT 05/M05 A3001 RMK A01 T00501054  RH  047%=      5-min Rain = 0
KPD2 180359Z 02002KT 05/M05 A3001 RMK A01 T00511054  RH  047%=      5-min Rain = 0
KPD2 180400Z 03002KT 05/M05 A3001 RMK A01 T00511054  RH  047%=      5-min Rain = 0
KPD2 180401Z 04001KT 05/M05 A3001 RMK A01 T00511054  RH  047%=      5-min Rain = 0
KPD2 180402Z 03002KT 05/M05 A30 RMK A01 T00521053  RH  047%=      5-min Rain = 0
KPD2 180403Z 00002KT 05/M05 A30 RMK A01 T00541053  RH  046%=      5-min Rain = 0
KPD2 180404Z 35002KT 06/M05 A30 RMK A01 T00561052  RH  046%=      5-min Rain = 0
KPD2 180405Z 33002KT 06/M05 A30 RMK A01 T00571052  RH  045%=      5-min Rain = 0
KPD2 180406Z 25002KT 06/M05 A30 RMK A01 T00561053  RH  045%=      5-min Rain = 0
KPD2 180407Z 22001KT 06/M05 A30 RMK A01 T00561053  RH  046%=      5-min Rain = 0
KPD2 180408Z 14001KT 06/M05 A30 RMK A01 T00561052  RH  046%=      5-min Rain = 0
KPD2 180409Z 14003KT 06/M05 A30 RMK A01 T00551052  RH  046%=      5-min Rain = 0
KPD2 180410Z 26001KT 06/M05 A30 RMK A01 T00571052  RH  045%=      5-min Rain = 0
KPD2 180411Z 33003KT 06/M05 A30 RMK A01 T00561053  RH  045%=      5-min Rain = 0
KPD2 180412Z 32001KT 06/M05 A30 RMK A01 T00581051  RH  045%=      5-min Rain = 0
KPD2 180413Z 32002KT 06/M05 A30 RMK A01 T00601051  RH  045%=      5-min Rain = 0
KPD2 180414Z 29003KT 06/M05 A30 RMK A01 T00601052  RH  045%=      5-min Rain = 0
KPD2 180415Z 22001KT 06/M05 A30 RMK A01 T00581053  RH  045%=      5-min Rain = 0
KPD2 180416Z 24001KT 06/M05 A30 RMK A01 T00561053  RH  045%=      5-min Rain = 0
KPD2 180417Z 19002KT 06/M05 A30 RMK A01 T00561052  RH  046%=      5-min Rain = 0
KPD2 180418Z 14004KT 06/M05 A30 RMK A01 T00591050  RH  046%=      5-min Rain = 0
KPD2 180419Z 11003KT 06/M05 A30 RMK A01 T00611050  RH  045%=      5-min Rain = 0
KPD2 180420Z 32000KT 06/M05 A30 RMK A01 T00611051  RH  044%=      5-min Rain = 0
KPD2 180421Z 32002KT 06/M05 A30 RMK A01 T00601052  RH  045%=      5-min Rain = 0
KPD2 180422Z 34002KT 06/M05 A30 RMK A01 T00591052  RH  045%=      5-min Rain = 0
KPD2 180423Z 24003KT 06/M05 A30 RMK A01 T00561052  RH  045%=      5-min Rain = 0
KPD2 180424Z 31003KT 06/M05 A30 RMK A01 T00561051  RH  046%=      5-min Rain = 0
KPD2 180425Z 34002KT 06/M05 A30 RMK A01 T00561051  RH  046%=      5-min Rain = 0
KPD2 180426Z 22005KT 05/M05 A30 RMK A01 T00541051  RH  047%=      5-min Rain = 0
KPD2 180427Z 15003KT 06/M05 A30 RMK A01 T00551050  RH  047%=      5-min Rain = 0
KPD2 180428Z 15007G12KT 06/M05 A30 RMK A01 T00551050  RH  047%=      5-min Rain = 0
KPD2 180429Z 18004KT 06/M05 A30 RMK A01 T00561049  RH  047%=      5-min Rain = 0
KPD2 180430Z 19003KT 06/M05 A30 RMK A01 T00571048  RH  047%=      5-min Rain = 0
KPD2 180431Z 19006KT 06/M05 A30 RMK A01 T00581048  RH  046%=      5-min Rain = 0
KPD2 180432Z 19006KT 06/M05 A30 RMK A01 T00601048  RH  046%=      5-min Rain = 0
KPD2 180433Z 18004KT 06/M05 A30 RMK A01 T00611048  RH  046%=      5-min Rain = 0
KPD2 180434Z 19006KT 06/M05 A30 RMK A01 T00611048  RH  045%=      5-min Rain = 0
KPD2 180435Z 19007KT 06/M05 A30 RMK A01 T00611048  RH  045%=      5-min Rain = 0
KPD2 180436Z 19004KT 06/M05 A2999 RMK A01 T00621048  RH  045%=      5-min Rain = 0
KPD2 180437Z 20006KT 06/M05 A2999 RMK A01 T00621048  RH  045%=      5-min Rain = 0
KPD2 180438Z 19004KT 06/M05 A2999 RMK A01 T00621048  RH  045%=      5-min Rain = 0
KPD2 180439Z 20006KT 06/M05 A2999 RMK A01 T00621048  RH  045%=      5-min Rain = 0
KPD2 180440Z 17005KT 06/M05 A2999 RMK A01 T00621048  RH  045%=      5-min Rain = 0
KPD2 180441Z 21003KT 06/M05 A2999 RMK A01 T00621048  RH  045%=      5-min Rain = 0
KPD2 180442Z 21004KT 06/M05 A2999 RMK A01 T00611049  RH  045%=      5-min Rain = 0
KPD2 180443Z 19006KT 06/M05 A2999 RMK A01 T00601048  RH  046%=      5-min Rain = 0
KPD2 180444Z 22005KT 06/M05 A2999 RMK A01 T00601048  RH  046%=      5-min Rain = 0
KPD2 180445Z 21003KT 06/M05 A2999 RMK A01 T00601048  RH  046%=      5-min Rain = 0
KPD2 180446Z 20003KT 06/M05 A2999 RMK A01 T00591048  RH  046%=      5-min Rain = 0
KPD2 180447Z 17003KT 06/M05 A2999 RMK A01 T00581048  RH  046%=      5-min Rain = 0
KPD2 180448Z 18003KT 06/M05 A2999 RMK A01 T00581048  RH  047%=      5-min Rain = 0
KPD2 180449Z 23004KT 06/M05 A2999 RMK A01 T00581048  RH  047%=      5-min Rain = 0
KPD2 180450Z 21007KT 06/M05 A2999 RMK A01 T00581048  RH  047%=      5-min Rain = 0
KPD2 180451Z 21006KT 06/M05 A2999 RMK A01 T00571047  RH  047%=      5-min Rain = 0
KPD2 180452Z 21005KT 06/M05 A2999 RMK A01 T00571047  RH  047%=      5-min Rain = 0
KPD2 180453Z 19005KT 06/M05 A2999 RMK A01 T00571046  RH  047%=      5-min Rain = 0
KPD2 180454Z 21003KT 06/M05 A2999 RMK A01 T00571046  RH  047%=      5-min Rain = 0
KPD2 180455Z 19002KT 06/M05 A2999 RMK A01 T00571046  RH  047%=      5-min Rain = 0
KPD2 180456Z 19003KT 06/M05 A2999 RMK A01 T00581046  RH  047%=      5-min Rain = 0
KPD2 180457Z 17002KT 06/M05 A2999 RMK A01 T00581046  RH  047%=      5-min Rain = 0
KPD2 180458Z 18003KT 06/M05 A2999 RMK A01 T00581046  RH  047%=      5-min Rain = 0
KPD2 180459Z 19004KT 06/M05 A2999 RMK A01 T00581046  RH  047%=      5-min Rain = 0
KPD2 180500Z 20004KT 06/M05 A2999 RMK A01 T00581046  RH  047%=      5-min Rain = 0
KPD2 180501Z 23001KT 06/M05 A2998 RMK A01 T00581045  RH  047%=      5-min Rain = 0
KPD2 180502Z 18001KT 06/M05 A2998 RMK A01 T00571046  RH  047%=      5-min Rain = 0
KPD2 180503Z 17004KT 06/M05 A2998 RMK A01 T00571046  RH  048%=      5-min Rain = 0
KPD2 180504Z 19006KT 06/M05 A2998 RMK A01 T00571046  RH  048%=      5-min Rain = 0
KPD2 180505Z 22002KT 06/M05 A2998 RMK A01 T00581045  RH  048%=      5-min Rain = 0
KPD2 180506Z 18002KT 06/M05 A2998 RMK A01 T00581046  RH  047%=      5-min Rain = 0
KPD2 180507Z 17005KT 06/M05 A2998 RMK A01 T00581045  RH  048%=      5-min Rain = 0
KPD2 180508Z 16004KT 06/M05 A2998 RMK A01 T00571045  RH  048%=      5-min Rain = 0
KPD2 180509Z 17003KT 06/M05 A2998 RMK A01 T00571045  RH  048%=      5-min Rain = 0
KPD2 180510Z 20005KT 06/M05 A2998 RMK A01 T00571045  RH  048%=      5-min Rain = 0
KPD2 180511Z 18007KT 06/M04 A2998 RMK A01 T00571044  RH  048%=      5-min Rain = 0
KPD2 180512Z 18006KT 06/M04 A2998 RMK A01 T00581044  RH  048%=      5-min Rain = 0
KPD2 180513Z 23002KT 06/M04 A2998 RMK A01 T00591044  RH  048%=      5-min Rain = 0
KPD2 180514Z 21000KT 06/M04 A2998 RMK A01 T00591044  RH  047%=      5-min Rain = 0
KPD2 180515Z 19002KT 06/M05 A2998 RMK A01 T00591045  RH  047%=      5-min Rain = 0
KPD2 180516Z 25004KT 06/M04 A2998 RMK A01 T00581044  RH  048%=      5-min Rain = 0
KPD2 180517Z 21001KT 06/M04 A2998 RMK A01 T00581044  RH  048%=      5-min Rain = 0
KPD2 180518Z 20001KT 06/M04 A2998 RMK A01 T00581044  RH  048%=      5-min Rain = 0
KPD2 180519Z 24002KT 06/M04 A2998 RMK A01 T00581044  RH  048%=      5-min Rain = 0
KPD2 180520Z 24000KT 06/M05 A2998 RMK A01 T00571045  RH  048%=      5-min Rain = 0
KPD2 180521Z 01001KT 06/M05 A2998 RMK A01 T00561046  RH  048%=      5-min Rain = 0
KPD2 180522Z 24002KT 05/M05 A2998 RMK A01 T00531046  RH  049%=      5-min Rain = 0
KPD2 180523Z 21003KT 05/M05 A2998 RMK A01 T00521046  RH  049%=      5-min Rain = 0
KPD2 180524Z 23003KT 05/M04 A2998 RMK A01 T00541044  RH  049%=      5-min Rain = 0
KPD2 180525Z 28003KT 05/M04 A2998 RMK A01 T00541044  RH  049%=      5-min Rain = 0
KPD2 180526Z 21003KT 06/M04 A2998 RMK A01 T00561043  RH  049%=      5-min Rain = 0
KPD2 180527Z 16000KT 06/M04 A2998 RMK A01 T00561044  RH  049%=      5-min Rain = 0
KPD2 180528Z 14002KT 06/M04 A2998 RMK A01 T00561044  RH  049%=      5-min Rain = 0
KPD2 180529Z 14003KT 06/M05 A2997 RMK A01 T00551045  RH  049%=      5-min Rain = 0
KPD2 180530Z 13001KT 05/M04 A2997 RMK A01 T00541044  RH  049%=      5-min Rain = 0
KPD2 180531Z 30000KT 05/M05 A2998 RMK A01 T00521045  RH  049%=      5-min Rain = 0
KPD2 180532Z 21003KT 05/M05 A2998 RMK A01 T00511045  RH  050%=      5-min Rain = 0
KPD2 180533Z 21003KT 05/M04 A2998 RMK A01 T00521044  RH  050%=      5-min Rain = 0
KPD2 180534Z 26003KT 05/M04 A2998 RMK A01 T00531044  RH  050%=      5-min Rain = 0
KPD2 180535Z 27001KT 05/M04 A2998 RMK A01 T00541044  RH  049%=      5-min Rain = 0
KPD2 180536Z 30000KT 05/M04 A2998 RMK A01 T00531044  RH  049%=      5-min Rain = 0
KPD2 180537Z 31001KT 05/M05 A2998 RMK A01 T00531045  RH  049%=      5-min Rain = 0
KPD2 180538Z 31002KT 05/M05 A2998 RMK A01 T00511046  RH  050%=      5-min Rain = 0
KPD2 180539Z 32002KT 05/M05 A2998 RMK A01 T00491046  RH  050%=      5-min Rain = 0
KPD2 180540Z 27004KT 05/M05 A2997 RMK A01 T00481046  RH  051%=      5-min Rain = 0
KPD2 180541Z 30001KT 05/M05 A2997 RMK A01 T00501045  RH  051%=      5-min Rain = 0
KPD2 180542Z 28002KT 05/M05 A2997 RMK A01 T00511045  RH  050%=      5-min Rain = 0
KPD2 180543Z 26001KT 05/M05 A2997 RMK A01 T00511045  RH  050%=      5-min Rain = 0
KPD2 180544Z 25000KT 05/M05 A2997 RMK A01 T00511045  RH  050%=      5-min Rain = 0
KPD2 180545Z 28002KT 05/M05 A2998 RMK A01 T00501046  RH  050%=      5-min Rain = 0
KPD2 180546Z 18001KT 05/M05 A2997 RMK A01 T00521045  RH  050%=      5-min Rain = 0
KPD2 180547Z 23002KT 05/M05 A2997 RMK A01 T00541045  RH  049%=      5-min Rain = 0
KPD2 180548Z 20004KT 06/M05 A2997 RMK A01 T00551045  RH  048%=      5-min Rain = 0
KPD2 180549Z 21003KT 06/M05 A2997 RMK A01 T00551045  RH  048%=      5-min Rain = 0
KPD2 180550Z 29002KT 06/M05 A2997 RMK A01 T00561045  RH  048%=      5-min Rain = 0
KPD2 180551Z 31001KT 06/M05 A2997 RMK A01 T00551046  RH  048%=      5-min Rain = 0
KPD2 180552Z 00002KT 05/M05 A2997 RMK A01 T00541047  RH  048%=      5-min Rain = 0
KPD2 180553Z 02000KT 05/M05 A2997 RMK A01 T00531047  RH  049%=      5-min Rain = 0
KPD2 180554Z 21005KT 05/M05 A2997 RMK A01 T00531046  RH  049%=      5-min Rain = 0
KPD2 180555Z 20007KT 05/M05 A2997 RMK A01 T00531046  RH  049%=      5-min Rain = 0
KPD2 180556Z 20002KT 05/M05 A2997 RMK A01 T00541046  RH  049%=      5-min Rain = 0
KPD2 180557Z 17005KT 06/M05 A2997 RMK A01 T00551046  RH  048%=      5-min Rain = 0
KPD2 180558Z 20003G8KT 06/M05 A2997 RMK A01 T00551046  RH  048%=      5-min Rain = 0
KPD2 180559Z 22005KT 06/M05 A2997 RMK A01 T00551046  RH  048%=      5-min Rain = 0

Page generated in 0.1245 seconds.